<?xml version="1.0" encoding="utf-8"?>
<gpx xmlns:xsi="http://www.w3.org/2001/XMLSchema-instance" xmlns:xsd="http://www.w3.org/2001/XMLSchema" xsi:schemaLocation="http://www.topografix.com/GPX/1/0 http://www.topografix.com/GPX/1/0/gpx.xsd" version="1.0" creator="Verlag Esterbauer" xmlns="http://www.topografix.com/GPX/1/0">
  <trk>
    <name>drw2#06</name>
    <trkseg>
      <trkpt lat="48.228528" lon="15.333012">
        <ele>244</ele>
        <time>2016-12-31T23:01:00Z</time>
      </trkpt>
      <trkpt lat="48.228165" lon="15.335038">
        <ele>239.51</ele>
        <time>2016-12-31T23:01:33.001Z</time>
      </trkpt>
      <trkpt lat="48.227929" lon="15.335921">
        <ele>237.58</ele>
        <time>2016-12-31T23:01:47.964Z</time>
      </trkpt>
      <trkpt lat="48.227924" lon="15.335971">
        <ele>237.48</ele>
        <time>2016-12-31T23:01:48.758Z</time>
      </trkpt>
      <trkpt lat="48.227971" lon="15.337018">
        <ele>235.84</ele>
        <time>2016-12-31T23:02:05.268Z</time>
      </trkpt>
      <trkpt lat="48.227991" lon="15.337764">
        <ele>236.02</ele>
        <time>2016-12-31T23:02:17.014Z</time>
      </trkpt>
      <trkpt lat="48.227994" lon="15.337763">
        <ele>236.02</ele>
        <time>2016-12-31T23:02:17.086Z</time>
      </trkpt>
      <trkpt lat="48.228568" lon="15.339038">
        <ele>239.65</ele>
        <time>2016-12-31T23:02:41.274Z</time>
      </trkpt>
      <trkpt lat="48.228861" lon="15.340555">
        <ele>244.65</ele>
        <time>2016-12-31T23:03:06.118Z</time>
      </trkpt>
      <trkpt lat="48.229868" lon="15.341831">
        <ele>250.91</ele>
        <time>2016-12-31T23:03:37.187Z</time>
      </trkpt>
      <trkpt lat="48.230311" lon="15.342228">
        <ele>252.92</ele>
        <time>2016-12-31T23:03:49.345Z</time>
      </trkpt>
      <trkpt lat="48.231293" lon="15.343052">
        <ele>256.01</ele>
        <time>2016-12-31T23:04:15.854Z</time>
      </trkpt>
      <trkpt lat="48.231639" lon="15.343376">
        <ele>257.13</ele>
        <time>2016-12-31T23:04:25.46Z</time>
      </trkpt>
      <trkpt lat="48.231639" lon="15.343355">
        <ele>257.15</ele>
        <time>2016-12-31T23:04:25.79Z</time>
      </trkpt>
      <trkpt lat="48.232046" lon="15.343453">
        <ele>256.77</ele>
        <time>2016-12-31T23:04:35.497Z</time>
      </trkpt>
      <trkpt lat="48.232063" lon="15.34342">
        <ele>256.74</ele>
        <time>2016-12-31T23:04:36.152Z</time>
      </trkpt>
      <trkpt lat="48.232532" lon="15.343968">
        <ele>255.68</ele>
        <time>2016-12-31T23:04:50.162Z</time>
      </trkpt>
      <trkpt lat="48.233136" lon="15.34532">
        <ele>253.1</ele>
        <time>2016-12-31T23:05:15.748Z</time>
      </trkpt>
      <trkpt lat="48.233324" lon="15.345587">
        <ele>252.48</ele>
        <time>2016-12-31T23:05:21.846Z</time>
      </trkpt>
      <trkpt lat="48.23343" lon="15.345787">
        <ele>252.12</ele>
        <time>2016-12-31T23:05:25.858Z</time>
      </trkpt>
      <trkpt lat="48.233364" lon="15.346086">
        <ele>251.87</ele>
        <time>2016-12-31T23:05:30.805Z</time>
      </trkpt>
      <trkpt lat="48.233433" lon="15.346192">
        <ele>251.76</ele>
        <time>2016-12-31T23:05:33.131Z</time>
      </trkpt>
      <trkpt lat="48.23345" lon="15.346506">
        <ele>251.81</ele>
        <time>2016-12-31T23:05:38.08Z</time>
      </trkpt>
      <trkpt lat="48.233422" lon="15.346786">
        <ele>252.02</ele>
        <time>2016-12-31T23:05:42.527Z</time>
      </trkpt>
      <trkpt lat="48.23354" lon="15.347036">
        <ele>252.25</ele>
        <time>2016-12-31T23:05:47.338Z</time>
      </trkpt>
      <trkpt lat="48.233253" lon="15.347512">
        <ele>252.5</ele>
        <time>2016-12-31T23:05:57.425Z</time>
      </trkpt>
      <trkpt lat="48.233244" lon="15.347529">
        <ele>252.5</ele>
        <time>2016-12-31T23:05:57.766Z</time>
      </trkpt>
      <trkpt lat="48.232815" lon="15.348168">
        <ele>252.36</ele>
        <time>2016-12-31T23:06:12.017Z</time>
      </trkpt>
      <trkpt lat="48.23279" lon="15.348339">
        <ele>252.27</ele>
        <time>2016-12-31T23:06:14.767Z</time>
      </trkpt>
      <trkpt lat="48.232794" lon="15.348319">
        <ele>252.25</ele>
        <time>2016-12-31T23:06:15.095Z</time>
      </trkpt>
      <trkpt lat="48.232466" lon="15.348613">
        <ele>251.87</ele>
        <time>2016-12-31T23:06:24.094Z</time>
      </trkpt>
      <trkpt lat="48.23289" lon="15.349561">
        <ele>251.03</ele>
        <time>2016-12-31T23:06:42.041Z</time>
      </trkpt>
      <trkpt lat="48.233157" lon="15.349837">
        <ele>250.64</ele>
        <time>2016-12-31T23:06:49.678Z</time>
      </trkpt>
      <trkpt lat="48.233454" lon="15.349899">
        <ele>250.27</ele>
        <time>2016-12-31T23:06:56.739Z</time>
      </trkpt>
      <trkpt lat="48.233931" lon="15.349589">
        <ele>249.47</ele>
        <time>2016-12-31T23:07:08.981Z</time>
      </trkpt>
      <trkpt lat="48.234418" lon="15.349301">
        <ele>248.44</ele>
        <time>2016-12-31T23:07:21.309Z</time>
      </trkpt>
      <trkpt lat="48.234806" lon="15.349099">
        <ele>247.64</ele>
        <time>2016-12-31T23:07:30.981Z</time>
      </trkpt>
      <trkpt lat="48.235031" lon="15.3491">
        <ele>246.96</ele>
        <time>2016-12-31T23:07:36.279Z</time>
      </trkpt>
      <trkpt lat="48.235996" lon="15.349159">
        <ele>243.08</ele>
        <time>2016-12-31T23:07:59.021Z</time>
      </trkpt>
      <trkpt lat="48.235986" lon="15.349159">
        <ele>243.04</ele>
        <time>2016-12-31T23:07:59.256Z</time>
      </trkpt>
      <trkpt lat="48.23672" lon="15.349173">
        <ele>239.79</ele>
        <time>2016-12-31T23:08:16.541Z</time>
      </trkpt>
      <trkpt lat="48.238201" lon="15.348875">
        <ele>232.67</ele>
        <time>2016-12-31T23:08:51.727Z</time>
      </trkpt>
      <trkpt lat="48.238785" lon="15.348571">
        <ele>229.72</ele>
        <time>2016-12-31T23:09:06.284Z</time>
      </trkpt>
      <trkpt lat="48.239048" lon="15.348398">
        <ele>228.3</ele>
        <time>2016-12-31T23:09:13.047Z</time>
      </trkpt>
      <trkpt lat="48.239254" lon="15.348246">
        <ele>227.21</ele>
        <time>2016-12-31T23:09:18.453Z</time>
      </trkpt>
      <trkpt lat="48.239257" lon="15.348251">
        <ele>227.19</ele>
        <time>2016-12-31T23:09:18.559Z</time>
      </trkpt>
      <trkpt lat="48.239098" lon="15.349201">
        <ele>224.47</ele>
        <time>2016-12-31T23:09:33.964Z</time>
      </trkpt>
      <trkpt lat="48.239789" lon="15.348259">
        <ele>221.12</ele>
        <time>2016-12-31T23:09:55.971Z</time>
      </trkpt>
      <trkpt lat="48.239829" lon="15.348344">
        <ele>220.87</ele>
        <time>2016-12-31T23:09:57.605Z</time>
      </trkpt>
      <trkpt lat="48.240211" lon="15.348487">
        <ele>219.94</ele>
        <time>2016-12-31T23:10:06.876Z</time>
      </trkpt>
      <trkpt lat="48.240226" lon="15.348477">
        <ele>219.92</ele>
        <time>2016-12-31T23:10:07.263Z</time>
      </trkpt>
      <trkpt lat="48.240846" lon="15.349266">
        <ele>219.22</ele>
        <time>2016-12-31T23:10:26.424Z</time>
      </trkpt>
      <trkpt lat="48.241533" lon="15.349936">
        <ele>219.43</ele>
        <time>2016-12-31T23:10:45.731Z</time>
      </trkpt>
      <trkpt lat="48.2425" lon="15.350586">
        <ele>220.34</ele>
        <time>2016-12-31T23:11:10.691Z</time>
      </trkpt>
      <trkpt lat="48.24334" lon="15.351803">
        <ele>221.35</ele>
        <time>2016-12-31T23:11:38.216Z</time>
      </trkpt>
      <trkpt lat="48.244069" lon="15.352666">
        <ele>222.36</ele>
        <time>2016-12-31T23:12:00.1Z</time>
      </trkpt>
      <trkpt lat="48.245175" lon="15.353931">
        <ele>224.09</ele>
        <time>2016-12-31T23:12:32.873Z</time>
      </trkpt>
      <trkpt lat="48.246116" lon="15.355216">
        <ele>225.68</ele>
        <time>2016-12-31T23:13:02.863Z</time>
      </trkpt>
      <trkpt lat="48.247173" lon="15.357584">
        <ele>227.91</ele>
        <time>2016-12-31T23:13:47.657Z</time>
      </trkpt>
      <trkpt lat="48.247936" lon="15.360081">
        <ele>229.04</ele>
        <time>2016-12-31T23:14:30.843Z</time>
      </trkpt>
      <trkpt lat="48.248302" lon="15.361098">
        <ele>229.52</ele>
        <time>2016-12-31T23:14:49.012Z</time>
      </trkpt>
      <trkpt lat="48.248921" lon="15.362331">
        <ele>227.8</ele>
        <time>2016-12-31T23:15:13.27Z</time>
      </trkpt>
      <trkpt lat="48.249924" lon="15.364084">
        <ele>221.85</ele>
        <time>2016-12-31T23:15:49.572Z</time>
      </trkpt>
      <trkpt lat="48.251023" lon="15.365714">
        <ele>215.89</ele>
        <time>2016-12-31T23:16:25.997Z</time>
      </trkpt>
      <trkpt lat="48.251425" lon="15.366385">
        <ele>213.42</ele>
        <time>2016-12-31T23:16:40.173Z</time>
      </trkpt>
      <trkpt lat="48.252029" lon="15.367377">
        <ele>210.05</ele>
        <time>2016-12-31T23:17:01.283Z</time>
      </trkpt>
      <trkpt lat="48.252185" lon="15.367619">
        <ele>209.21</ele>
        <time>2016-12-31T23:17:06.568Z</time>
      </trkpt>
      <trkpt lat="48.25207" lon="15.367905">
        <ele>208.79</ele>
        <time>2016-12-31T23:17:11.812Z</time>
      </trkpt>
      <trkpt lat="48.251959" lon="15.368169">
        <ele>208.76</ele>
        <time>2016-12-31T23:17:16.713Z</time>
      </trkpt>
      <trkpt lat="48.252977" lon="15.369352">
        <ele>208.56</ele>
        <time>2016-12-31T23:17:47.056Z</time>
      </trkpt>
      <trkpt lat="48.253626" lon="15.370286">
        <ele>208.6</ele>
        <time>2016-12-31T23:18:08.252Z</time>
      </trkpt>
      <trkpt lat="48.25443" lon="15.371729">
        <ele>208.77</ele>
        <time>2016-12-31T23:18:37.804Z</time>
      </trkpt>
      <trkpt lat="48.254974" lon="15.372283">
        <ele>208.87</ele>
        <time>2016-12-31T23:18:53.295Z</time>
      </trkpt>
      <trkpt lat="48.255637" lon="15.372662">
        <ele>209.03</ele>
        <time>2016-12-31T23:19:10.003Z</time>
      </trkpt>
      <trkpt lat="48.255892" lon="15.372863">
        <ele>209.14</ele>
        <time>2016-12-31T23:19:16.786Z</time>
      </trkpt>
      <trkpt lat="48.256001" lon="15.373053">
        <ele>209.21</ele>
        <time>2016-12-31T23:19:20.721Z</time>
      </trkpt>
      <trkpt lat="48.255973" lon="15.373018">
        <ele>209.3</ele>
        <time>2016-12-31T23:19:21.579Z</time>
      </trkpt>
      <trkpt lat="48.256123" lon="15.373669">
        <ele>211.61</ele>
        <time>2016-12-31T23:19:32.408Z</time>
      </trkpt>
      <trkpt lat="48.256128" lon="15.37364">
        <ele>211.7</ele>
        <time>2016-12-31T23:19:32.878Z</time>
      </trkpt>
      <trkpt lat="48.256418" lon="15.374327">
        <ele>214.67</ele>
        <time>2016-12-31T23:19:45.658Z</time>
      </trkpt>
      <trkpt lat="48.256858" lon="15.375618">
        <ele>220.31</ele>
        <time>2016-12-31T23:20:08.449Z</time>
      </trkpt>
      <trkpt lat="48.257378" lon="15.377418">
        <ele>227.94</ele>
        <time>2016-12-31T23:20:39.288Z</time>
      </trkpt>
      <trkpt lat="48.257562" lon="15.377857">
        <ele>230.22</ele>
        <time>2016-12-31T23:20:47.438Z</time>
      </trkpt>
      <trkpt lat="48.257799" lon="15.378235">
        <ele>232.67</ele>
        <time>2016-12-31T23:20:55.585Z</time>
      </trkpt>
      <trkpt lat="48.25812" lon="15.378649">
        <ele>235.67</ele>
        <time>2016-12-31T23:21:05.56Z</time>
      </trkpt>
      <trkpt lat="48.258347" lon="15.378799">
        <ele>236.82</ele>
        <time>2016-12-31T23:21:11.401Z</time>
      </trkpt>
      <trkpt lat="48.25835" lon="15.378774">
        <ele>236.85</ele>
        <time>2016-12-31T23:21:11.8Z</time>
      </trkpt>
      <trkpt lat="48.258749" lon="15.378994">
        <ele>237.56</ele>
        <time>2016-12-31T23:21:21.81Z</time>
      </trkpt>
      <trkpt lat="48.258753" lon="15.378976">
        <ele>237.56</ele>
        <time>2016-12-31T23:21:22.108Z</time>
      </trkpt>
      <trkpt lat="48.259026" lon="15.379019">
        <ele>237.29</ele>
        <time>2016-12-31T23:21:28.572Z</time>
      </trkpt>
      <trkpt lat="48.259537" lon="15.379037">
        <ele>236.77</ele>
        <time>2016-12-31T23:21:40.608Z</time>
      </trkpt>
      <trkpt lat="48.259705" lon="15.379005">
        <ele>236.34</ele>
        <time>2016-12-31T23:21:44.596Z</time>
      </trkpt>
      <trkpt lat="48.259705" lon="15.379004">
        <ele>236.34</ele>
        <time>2016-12-31T23:21:44.612Z</time>
      </trkpt>
      <trkpt lat="48.260031" lon="15.378827">
        <ele>234.86</ele>
        <time>2016-12-31T23:21:52.776Z</time>
      </trkpt>
      <trkpt lat="48.260451" lon="15.378553">
        <ele>232.96</ele>
        <time>2016-12-31T23:22:03.561Z</time>
      </trkpt>
      <trkpt lat="48.260786" lon="15.378352">
        <ele>231.79</ele>
        <time>2016-12-31T23:22:12.057Z</time>
      </trkpt>
      <trkpt lat="48.261144" lon="15.378174">
        <ele>230.58</ele>
        <time>2016-12-31T23:22:20.938Z</time>
      </trkpt>
      <trkpt lat="48.261337" lon="15.378112">
        <ele>230.39</ele>
        <time>2016-12-31T23:22:25.586Z</time>
      </trkpt>
      <trkpt lat="48.261575" lon="15.378178">
        <ele>230.64</ele>
        <time>2016-12-31T23:22:31.285Z</time>
      </trkpt>
      <trkpt lat="48.262376" lon="15.37814">
        <ele>231.46</ele>
        <time>2016-12-31T23:22:50.156Z</time>
      </trkpt>
      <trkpt lat="48.262833" lon="15.378151">
        <ele>232.29</ele>
        <time>2016-12-31T23:23:00.918Z</time>
      </trkpt>
      <trkpt lat="48.263199" lon="15.378278">
        <ele>233.27</ele>
        <time>2016-12-31T23:23:09.764Z</time>
      </trkpt>
      <trkpt lat="48.263714" lon="15.378655">
        <ele>234.77</ele>
        <time>2016-12-31T23:23:23.258Z</time>
      </trkpt>
      <trkpt lat="48.264677" lon="15.379628">
        <ele>238.17</ele>
        <time>2016-12-31T23:23:50.612Z</time>
      </trkpt>
      <trkpt lat="48.265528" lon="15.380237">
        <ele>240.7</ele>
        <time>2016-12-31T23:24:12.821Z</time>
      </trkpt>
      <trkpt lat="48.266308" lon="15.380608">
        <ele>242.9</ele>
        <time>2016-12-31T23:24:32.089Z</time>
      </trkpt>
      <trkpt lat="48.266666" lon="15.381065">
        <ele>243.26</ele>
        <time>2016-12-31T23:24:43.165Z</time>
      </trkpt>
      <trkpt lat="48.267109" lon="15.381524">
        <ele>242.55</ele>
        <time>2016-12-31T23:24:55.849Z</time>
      </trkpt>
      <trkpt lat="48.267403" lon="15.381656">
        <ele>242.14</ele>
        <time>2016-12-31T23:25:03.075Z</time>
      </trkpt>
      <trkpt lat="48.267411" lon="15.381653">
        <ele>242.12</ele>
        <time>2016-12-31T23:25:03.269Z</time>
      </trkpt>
      <trkpt lat="48.267879" lon="15.381725">
        <ele>241.37</ele>
        <time>2016-12-31T23:25:14.347Z</time>
      </trkpt>
      <trkpt lat="48.267884" lon="15.381732">
        <ele>241.36</ele>
        <time>2016-12-31T23:25:14.508Z</time>
      </trkpt>
      <trkpt lat="48.268252" lon="15.38225">
        <ele>240.85</ele>
        <time>2016-12-31T23:25:26.399Z</time>
      </trkpt>
      <trkpt lat="48.268881" lon="15.383227">
        <ele>240.28</ele>
        <time>2016-12-31T23:25:47.736Z</time>
      </trkpt>
      <trkpt lat="48.269356" lon="15.384057">
        <ele>239.81</ele>
        <time>2016-12-31T23:26:04.922Z</time>
      </trkpt>
      <trkpt lat="48.269781" lon="15.384558">
        <ele>239.29</ele>
        <time>2016-12-31T23:26:17.657Z</time>
      </trkpt>
      <trkpt lat="48.270204" lon="15.385565">
        <ele>238.17</ele>
        <time>2016-12-31T23:26:36.36Z</time>
      </trkpt>
      <trkpt lat="48.271216" lon="15.387156">
        <ele>236.11</ele>
        <time>2016-12-31T23:27:10.906Z</time>
      </trkpt>
      <trkpt lat="48.27222" lon="15.388594">
        <ele>233.83</ele>
        <time>2016-12-31T23:27:43.615Z</time>
      </trkpt>
      <trkpt lat="48.273236" lon="15.39037">
        <ele>230.64</ele>
        <time>2016-12-31T23:28:20.381Z</time>
      </trkpt>
      <trkpt lat="48.273236" lon="15.390378">
        <ele>230.63</ele>
        <time>2016-12-31T23:28:20.507Z</time>
      </trkpt>
      <trkpt lat="48.273656" lon="15.390587">
        <ele>229.06</ele>
        <time>2016-12-31T23:28:30.927Z</time>
      </trkpt>
      <trkpt lat="48.274087" lon="15.390914">
        <ele>226.63</ele>
        <time>2016-12-31T23:28:42.3Z</time>
      </trkpt>
      <trkpt lat="48.274326" lon="15.391429">
        <ele>224.51</ele>
        <time>2016-12-31T23:28:52.159Z</time>
      </trkpt>
      <trkpt lat="48.274576" lon="15.391871">
        <ele>222.75</ele>
        <time>2016-12-31T23:29:01.265Z</time>
      </trkpt>
      <trkpt lat="48.275132" lon="15.392704">
        <ele>220.17</ele>
        <time>2016-12-31T23:29:19.781Z</time>
      </trkpt>
      <trkpt lat="48.275965" lon="15.393541">
        <ele>216.88</ele>
        <time>2016-12-31T23:29:43.4Z</time>
      </trkpt>
      <trkpt lat="48.277161" lon="15.395347">
        <ele>213.64</ele>
        <time>2016-12-31T23:30:23.387Z</time>
      </trkpt>
      <trkpt lat="48.278442" lon="15.397133">
        <ele>211.96</ele>
        <time>2016-12-31T23:31:04.593Z</time>
      </trkpt>
      <trkpt lat="48.280588" lon="15.400242">
        <ele>209.1</ele>
        <time>2016-12-31T23:32:14.888Z</time>
      </trkpt>
      <trkpt lat="48.282399" lon="15.402149">
        <ele>207.75</ele>
        <time>2016-12-31T23:33:07.011Z</time>
      </trkpt>
      <trkpt lat="48.284428" lon="15.403596">
        <ele>207.03</ele>
        <time>2016-12-31T23:33:59.925Z</time>
      </trkpt>
      <trkpt lat="48.286171" lon="15.404771">
        <ele>206.42</ele>
        <time>2016-12-31T23:34:44.931Z</time>
      </trkpt>
      <trkpt lat="48.286934" lon="15.405812">
        <ele>206.27</ele>
        <time>2016-12-31T23:35:09.23Z</time>
      </trkpt>
      <trkpt lat="48.287082" lon="15.40585">
        <ele>206.25</ele>
        <time>2016-12-31T23:35:12.766Z</time>
      </trkpt>
      <trkpt lat="48.287069" lon="15.406082">
        <ele>206.23</ele>
        <time>2016-12-31T23:35:16.419Z</time>
      </trkpt>
      <trkpt lat="48.288112" lon="15.406403">
        <ele>205.96</ele>
        <time>2016-12-31T23:35:41.49Z</time>
      </trkpt>
      <trkpt lat="48.289059" lon="15.406435">
        <ele>205.61</ele>
        <time>2016-12-31T23:36:03.795Z</time>
      </trkpt>
      <trkpt lat="48.289716" lon="15.406448">
        <ele>205.37</ele>
        <time>2016-12-31T23:36:19.267Z</time>
      </trkpt>
      <trkpt lat="48.290291" lon="15.406566">
        <ele>205.12</ele>
        <time>2016-12-31T23:36:32.933Z</time>
      </trkpt>
      <trkpt lat="48.290794" lon="15.40658">
        <ele>204.91</ele>
        <time>2016-12-31T23:36:44.779Z</time>
      </trkpt>
      <trkpt lat="48.291955" lon="15.407297">
        <ele>204.38</ele>
        <time>2016-12-31T23:37:14.348Z</time>
      </trkpt>
      <trkpt lat="48.292304" lon="15.407424">
        <ele>204.25</ele>
        <time>2016-12-31T23:37:22.804Z</time>
      </trkpt>
      <trkpt lat="48.292284" lon="15.407417">
        <ele>204.25</ele>
        <time>2016-12-31T23:37:23.288Z</time>
      </trkpt>
      <trkpt lat="48.292611" lon="15.407438">
        <ele>204.16</ele>
        <time>2016-12-31T23:37:30.995Z</time>
      </trkpt>
      <trkpt lat="48.292939" lon="15.407348">
        <ele>204.09</ele>
        <time>2016-12-31T23:37:38.847Z</time>
      </trkpt>
      <trkpt lat="48.293333" lon="15.407322">
        <ele>204.05</ele>
        <time>2016-12-31T23:37:48.134Z</time>
      </trkpt>
      <trkpt lat="48.293799" lon="15.407404">
        <ele>203.99</ele>
        <time>2016-12-31T23:37:59.182Z</time>
      </trkpt>
      <trkpt lat="48.294336" lon="15.407686">
        <ele>203.94</ele>
        <time>2016-12-31T23:38:12.579Z</time>
      </trkpt>
      <trkpt lat="48.294874" lon="15.407797">
        <ele>203.89</ele>
        <time>2016-12-31T23:38:25.367Z</time>
      </trkpt>
      <trkpt lat="48.295382" lon="15.407846">
        <ele>203.85</ele>
        <time>2016-12-31T23:38:37.354Z</time>
      </trkpt>
      <trkpt lat="48.296004" lon="15.407991">
        <ele>203.76</ele>
        <time>2016-12-31T23:38:52.176Z</time>
      </trkpt>
      <trkpt lat="48.296454" lon="15.408208">
        <ele>203.67</ele>
        <time>2016-12-31T23:39:03.306Z</time>
      </trkpt>
      <trkpt lat="48.296806" lon="15.408394">
        <ele>203.6</ele>
        <time>2016-12-31T23:39:12.093Z</time>
      </trkpt>
      <trkpt lat="48.297993" lon="15.40917">
        <ele>203.33</ele>
        <time>2016-12-31T23:39:42.587Z</time>
      </trkpt>
      <trkpt lat="48.29858" lon="15.409477">
        <ele>203.22</ele>
        <time>2016-12-31T23:39:57.224Z</time>
      </trkpt>
      <trkpt lat="48.299041" lon="15.409623">
        <ele>203.13</ele>
        <time>2016-12-31T23:40:08.318Z</time>
      </trkpt>
      <trkpt lat="48.299635" lon="15.409763">
        <ele>203.06</ele>
        <time>2016-12-31T23:40:22.477Z</time>
      </trkpt>
      <trkpt lat="48.300106" lon="15.409973">
        <ele>203.02</ele>
        <time>2016-12-31T23:40:34.047Z</time>
      </trkpt>
      <trkpt lat="48.300783" lon="15.410376">
        <ele>202.96</ele>
        <time>2016-12-31T23:40:51.2Z</time>
      </trkpt>
      <trkpt lat="48.301326" lon="15.410583">
        <ele>202.91</ele>
        <time>2016-12-31T23:41:04.392Z</time>
      </trkpt>
      <trkpt lat="48.302009" lon="15.410806">
        <ele>202.82</ele>
        <time>2016-12-31T23:41:20.851Z</time>
      </trkpt>
      <trkpt lat="48.302911" lon="15.410998">
        <ele>202.7</ele>
        <time>2016-12-31T23:41:42.303Z</time>
      </trkpt>
      <trkpt lat="48.303649" lon="15.411241">
        <ele>202.59</ele>
        <time>2016-12-31T23:42:00.094Z</time>
      </trkpt>
      <trkpt lat="48.304831" lon="15.411481">
        <ele>202.4</ele>
        <time>2016-12-31T23:42:28.181Z</time>
      </trkpt>
      <trkpt lat="48.307293" lon="15.411796">
        <ele>202</ele>
        <time>2016-12-31T23:43:26.365Z</time>
      </trkpt>
      <trkpt lat="48.307288" lon="15.411788">
        <ele>202</ele>
        <time>2016-12-31T23:43:26.537Z</time>
      </trkpt>
      <trkpt lat="48.308341" lon="15.411838">
        <ele>202.27</ele>
        <time>2016-12-31T23:43:51.345Z</time>
      </trkpt>
      <trkpt lat="48.308765" lon="15.411878">
        <ele>202.38</ele>
        <time>2016-12-31T23:44:01.349Z</time>
      </trkpt>
      <trkpt lat="48.308765" lon="15.411878">
        <ele>202.38</ele>
        <time>2016-12-31T23:44:01.349Z</time>
      </trkpt>
      <trkpt lat="48.309481" lon="15.412039">
        <ele>202.44</ele>
        <time>2016-12-31T23:44:18.397Z</time>
      </trkpt>
      <trkpt lat="48.310339" lon="15.412065">
        <ele>202.52</ele>
        <time>2016-12-31T23:44:38.605Z</time>
      </trkpt>
      <trkpt lat="48.311183" lon="15.412295">
        <ele>202.51</ele>
        <time>2016-12-31T23:44:58.804Z</time>
      </trkpt>
      <trkpt lat="48.313554" lon="15.412954">
        <ele>202.31</ele>
        <time>2016-12-31T23:45:55.587Z</time>
      </trkpt>
      <trkpt lat="48.315573" lon="15.413401">
        <ele>202.14</ele>
        <time>2016-12-31T23:46:43.645Z</time>
      </trkpt>
      <trkpt lat="48.316126" lon="15.413495">
        <ele>202.1</ele>
        <time>2016-12-31T23:46:56.75Z</time>
      </trkpt>
      <trkpt lat="48.316654" lon="15.413506">
        <ele>202.08</ele>
        <time>2016-12-31T23:47:09.184Z</time>
      </trkpt>
      <trkpt lat="48.317081" lon="15.413455">
        <ele>202.06</ele>
        <time>2016-12-31T23:47:19.271Z</time>
      </trkpt>
      <trkpt lat="48.317621" lon="15.413507">
        <ele>202.04</ele>
        <time>2016-12-31T23:47:32.013Z</time>
      </trkpt>
      <trkpt lat="48.318146" lon="15.413525">
        <ele>202.04</ele>
        <time>2016-12-31T23:47:44.379Z</time>
      </trkpt>
      <trkpt lat="48.318901" lon="15.413406">
        <ele>202.03</ele>
        <time>2016-12-31T23:48:02.255Z</time>
      </trkpt>
      <trkpt lat="48.321872" lon="15.412631">
        <ele>202</ele>
        <time>2016-12-31T23:49:13.265Z</time>
      </trkpt>
      <trkpt lat="48.322355" lon="15.412556">
        <ele>202</ele>
        <time>2016-12-31T23:49:24.699Z</time>
      </trkpt>
      <trkpt lat="48.322835" lon="15.412396">
        <ele>202</ele>
        <time>2016-12-31T23:49:36.277Z</time>
      </trkpt>
      <trkpt lat="48.323368" lon="15.412329">
        <ele>202</ele>
        <time>2016-12-31T23:49:48.872Z</time>
      </trkpt>
      <trkpt lat="48.324177" lon="15.411995">
        <ele>201.99</ele>
        <time>2016-12-31T23:50:08.629Z</time>
      </trkpt>
      <trkpt lat="48.324765" lon="15.411907">
        <ele>201.99</ele>
        <time>2016-12-31T23:50:22.544Z</time>
      </trkpt>
      <trkpt lat="48.325105" lon="15.411952">
        <ele>201.98</ele>
        <time>2016-12-31T23:50:30.581Z</time>
      </trkpt>
      <trkpt lat="48.326403" lon="15.411621">
        <ele>201.94</ele>
        <time>2016-12-31T23:51:01.583Z</time>
      </trkpt>
      <trkpt lat="48.327215" lon="15.411328">
        <ele>201.92</ele>
        <time>2016-12-31T23:51:21.248Z</time>
      </trkpt>
      <trkpt lat="48.32818" lon="15.411059">
        <ele>201.87</ele>
        <time>2016-12-31T23:51:44.359Z</time>
      </trkpt>
      <trkpt lat="48.32894" lon="15.410722">
        <ele>201.8</ele>
        <time>2016-12-31T23:52:03.019Z</time>
      </trkpt>
      <trkpt lat="48.330203" lon="15.410406">
        <ele>201.68</ele>
        <time>2016-12-31T23:52:33.169Z</time>
      </trkpt>
      <trkpt lat="48.331533" lon="15.410132">
        <ele>201.54</ele>
        <time>2016-12-31T23:53:04.78Z</time>
      </trkpt>
      <trkpt lat="48.332968" lon="15.409802">
        <ele>201.39</ele>
        <time>2016-12-31T23:53:38.965Z</time>
      </trkpt>
      <trkpt lat="48.334132" lon="15.409548">
        <ele>201.27</ele>
        <time>2016-12-31T23:54:06.662Z</time>
      </trkpt>
      <trkpt lat="48.335161" lon="15.409349">
        <ele>201.2</ele>
        <time>2016-12-31T23:54:31.092Z</time>
      </trkpt>
      <trkpt lat="48.336268" lon="15.409273">
        <ele>201.18</ele>
        <time>2016-12-31T23:54:57.186Z</time>
      </trkpt>
      <trkpt lat="48.336513" lon="15.409183">
        <ele>201.17</ele>
        <time>2016-12-31T23:55:03.125Z</time>
      </trkpt>
      <trkpt lat="48.337037" lon="15.409002">
        <ele>201.17</ele>
        <time>2016-12-31T23:55:15.786Z</time>
      </trkpt>
      <trkpt lat="48.337622" lon="15.409007">
        <ele>201.16</ele>
        <time>2016-12-31T23:55:29.562Z</time>
      </trkpt>
      <trkpt lat="48.340666" lon="15.409501">
        <ele>201.13</ele>
        <time>2016-12-31T23:56:41.659Z</time>
      </trkpt>
      <trkpt lat="48.34247" lon="15.409543">
        <ele>201.1</ele>
        <time>2016-12-31T23:57:24.144Z</time>
      </trkpt>
      <trkpt lat="48.342958" lon="15.40964">
        <ele>201.09</ele>
        <time>2016-12-31T23:57:35.735Z</time>
      </trkpt>
      <trkpt lat="48.343599" lon="15.409553">
        <ele>201.07</ele>
        <time>2016-12-31T23:57:50.89Z</time>
      </trkpt>
      <trkpt lat="48.343951" lon="15.409562">
        <ele>201.08</ele>
        <time>2016-12-31T23:57:59.18Z</time>
      </trkpt>
      <trkpt lat="48.344206" lon="15.409657">
        <ele>201.1</ele>
        <time>2016-12-31T23:58:05.367Z</time>
      </trkpt>
      <trkpt lat="48.344605" lon="15.409624">
        <ele>201.13</ele>
        <time>2016-12-31T23:58:14.777Z</time>
      </trkpt>
      <trkpt lat="48.345445" lon="15.409688">
        <ele>201.23</ele>
        <time>2016-12-31T23:58:34.582Z</time>
      </trkpt>
      <trkpt lat="48.34664" lon="15.409723">
        <ele>201.39</ele>
        <time>2016-12-31T23:59:02.727Z</time>
      </trkpt>
      <trkpt lat="48.347941" lon="15.409958">
        <ele>201.57</ele>
        <time>2016-12-31T23:59:33.583Z</time>
      </trkpt>
      <trkpt lat="48.348913" lon="15.410072">
        <ele>201.74</ele>
        <time>2016-12-31T23:59:56.541Z</time>
      </trkpt>
      <trkpt lat="48.350531" lon="15.410358">
        <ele>202.1</ele>
        <time>2017-01-01T00:00:34.904Z</time>
      </trkpt>
      <trkpt lat="48.351608" lon="15.410691">
        <ele>202.34</ele>
        <time>2017-01-01T00:01:00.796Z</time>
      </trkpt>
      <trkpt lat="48.353363" lon="15.411028">
        <ele>202.73</ele>
        <time>2017-01-01T00:01:42.458Z</time>
      </trkpt>
      <trkpt lat="48.354357" lon="15.411776">
        <ele>202.96</ele>
        <time>2017-01-01T00:02:08.643Z</time>
      </trkpt>
      <trkpt lat="48.354371" lon="15.411776">
        <ele>202.97</ele>
        <time>2017-01-01T00:02:08.973Z</time>
      </trkpt>
      <trkpt lat="48.355389" lon="15.412841">
        <ele>203.19</ele>
        <time>2017-01-01T00:02:38.196Z</time>
      </trkpt>
      <trkpt lat="48.356349" lon="15.414036">
        <ele>203.39</ele>
        <time>2017-01-01T00:03:07.569Z</time>
      </trkpt>
      <trkpt lat="48.357887" lon="15.416165">
        <ele>203.72</ele>
        <time>2017-01-01T00:03:56.843Z</time>
      </trkpt>
      <trkpt lat="48.360086" lon="15.419387">
        <ele>204.23</ele>
        <time>2017-01-01T00:05:09.216Z</time>
      </trkpt>
      <trkpt lat="48.360637" lon="15.420263">
        <ele>204.39</ele>
        <time>2017-01-01T00:05:28.119Z</time>
      </trkpt>
      <trkpt lat="48.360637" lon="15.420263">
        <ele>204.39</ele>
        <time>2017-01-01T00:05:28.119Z</time>
      </trkpt>
      <trkpt lat="48.361137" lon="15.421138">
        <ele>204.58</ele>
        <time>2017-01-01T00:05:46.207Z</time>
      </trkpt>
      <trkpt lat="48.361304" lon="15.421449">
        <ele>204.67</ele>
        <time>2017-01-01T00:05:52.469Z</time>
      </trkpt>
      <trkpt lat="48.361622" lon="15.42211">
        <ele>204.85</ele>
        <time>2017-01-01T00:06:05.262Z</time>
      </trkpt>
      <trkpt lat="48.362527" lon="15.423935">
        <ele>205.46</ele>
        <time>2017-01-01T00:06:40.959Z</time>
      </trkpt>
      <trkpt lat="48.363202" lon="15.425303">
        <ele>205.96</ele>
        <time>2017-01-01T00:07:07.669Z</time>
      </trkpt>
      <trkpt lat="48.363599" lon="15.425953">
        <ele>206.22</ele>
        <time>2017-01-01T00:07:21.505Z</time>
      </trkpt>
      <trkpt lat="48.364336" lon="15.426981">
        <ele>206.6</ele>
        <time>2017-01-01T00:07:45.199Z</time>
      </trkpt>
      <trkpt lat="48.364636" lon="15.427758">
        <ele>206.73</ele>
        <time>2017-01-01T00:07:59.29Z</time>
      </trkpt>
      <trkpt lat="48.364958" lon="15.429163">
        <ele>206.95</ele>
        <time>2017-01-01T00:08:22.604Z</time>
      </trkpt>
      <trkpt lat="48.365589" lon="15.431203">
        <ele>207</ele>
        <time>2017-01-01T00:08:57.894Z</time>
      </trkpt>
      <trkpt lat="48.365946" lon="15.432718">
        <ele>206.88</ele>
        <time>2017-01-01T00:09:23.108Z</time>
      </trkpt>
      <trkpt lat="48.366673" lon="15.434711">
        <ele>206.71</ele>
        <time>2017-01-01T00:09:58.759Z</time>
      </trkpt>
      <trkpt lat="48.367006" lon="15.436237">
        <ele>206.35</ele>
        <time>2017-01-01T00:10:23.954Z</time>
      </trkpt>
      <trkpt lat="48.367143" lon="15.436884">
        <ele>206.06</ele>
        <time>2017-01-01T00:10:34.606Z</time>
      </trkpt>
      <trkpt lat="48.367591" lon="15.438241">
        <ele>205.42</ele>
        <time>2017-01-01T00:10:58.368Z</time>
      </trkpt>
      <trkpt lat="48.368048" lon="15.439493">
        <ele>204.67</ele>
        <time>2017-01-01T00:11:20.767Z</time>
      </trkpt>
      <trkpt lat="48.368555" lon="15.441194">
        <ele>203.8</ele>
        <time>2017-01-01T00:11:50.005Z</time>
      </trkpt>
      <trkpt lat="48.36907" lon="15.442074">
        <ele>203.25</ele>
        <time>2017-01-01T00:12:08.382Z</time>
      </trkpt>
      <trkpt lat="48.36965" lon="15.443331">
        <ele>203.09</ele>
        <time>2017-01-01T00:12:32.371Z</time>
      </trkpt>
      <trkpt lat="48.36999" lon="15.44449">
        <ele>203.43</ele>
        <time>2017-01-01T00:12:52.24Z</time>
      </trkpt>
      <trkpt lat="48.370367" lon="15.446404">
        <ele>203.97</ele>
        <time>2017-01-01T00:13:23.555Z</time>
      </trkpt>
      <trkpt lat="48.370963" lon="15.448241">
        <ele>204.92</ele>
        <time>2017-01-01T00:13:55.612Z</time>
      </trkpt>
      <trkpt lat="48.372074" lon="15.449948">
        <ele>206.5</ele>
        <time>2017-01-01T00:14:33.051Z</time>
      </trkpt>
      <trkpt lat="48.37265" lon="15.450914">
        <ele>207.36</ele>
        <time>2017-01-01T00:14:53.39Z</time>
      </trkpt>
      <trkpt lat="48.373457" lon="15.452095">
        <ele>208.96</ele>
        <time>2017-01-01T00:15:19.931Z</time>
      </trkpt>
      <trkpt lat="48.374103" lon="15.452962">
        <ele>210.4</ele>
        <time>2017-01-01T00:15:40.337Z</time>
      </trkpt>
      <trkpt lat="48.374944" lon="15.453926">
        <ele>212.17</ele>
        <time>2017-01-01T00:16:05.255Z</time>
      </trkpt>
      <trkpt lat="48.376437" lon="15.455351">
        <ele>214.27</ele>
        <time>2017-01-01T00:16:46.917Z</time>
      </trkpt>
      <trkpt lat="48.377343" lon="15.456196">
        <ele>214.68</ele>
        <time>2017-01-01T00:17:12.034Z</time>
      </trkpt>
      <trkpt lat="48.378285" lon="15.457511">
        <ele>215.18</ele>
        <time>2017-01-01T00:17:42.326Z</time>
      </trkpt>
      <trkpt lat="48.380281" lon="15.460153">
        <ele>214.65</ele>
        <time>2017-01-01T00:18:44.99Z</time>
      </trkpt>
      <trkpt lat="48.382476" lon="15.462888">
        <ele>213.34</ele>
        <time>2017-01-01T00:19:52.162Z</time>
      </trkpt>
      <trkpt lat="48.383291" lon="15.464473">
        <ele>212.73</ele>
        <time>2017-01-01T00:20:23.569Z</time>
      </trkpt>
      <trkpt lat="48.384293" lon="15.46609">
        <ele>211.73</ele>
        <time>2017-01-01T00:20:58.21Z</time>
      </trkpt>
      <trkpt lat="48.385896" lon="15.467669">
        <ele>210.11</ele>
        <time>2017-01-01T00:21:43.357Z</time>
      </trkpt>
      <trkpt lat="48.388187" lon="15.469627">
        <ele>207.88</ele>
        <time>2017-01-01T00:22:45.434Z</time>
      </trkpt>
      <trkpt lat="48.388952" lon="15.470439">
        <ele>207.28</ele>
        <time>2017-01-01T00:23:07.495Z</time>
      </trkpt>
      <trkpt lat="48.390492" lon="15.472178">
        <ele>206.85</ele>
        <time>2017-01-01T00:23:52.87Z</time>
      </trkpt>
      <trkpt lat="48.391299" lon="15.473214">
        <ele>206.62</ele>
        <time>2017-01-01T00:24:17.872Z</time>
      </trkpt>
      <trkpt lat="48.392171" lon="15.474481">
        <ele>207.14</ele>
        <time>2017-01-01T00:24:46.446Z</time>
      </trkpt>
      <trkpt lat="48.392437" lon="15.474889">
        <ele>207.55</ele>
        <time>2017-01-01T00:24:55.4Z</time>
      </trkpt>
      <trkpt lat="48.392872" lon="15.475399">
        <ele>208.15</ele>
        <time>2017-01-01T00:25:08.396Z</time>
      </trkpt>
      <trkpt lat="48.392867" lon="15.475405">
        <ele>208.15</ele>
        <time>2017-01-01T00:25:08.547Z</time>
      </trkpt>
      <trkpt lat="48.393286" lon="15.475859">
        <ele>207.65</ele>
        <time>2017-01-01T00:25:20.714Z</time>
      </trkpt>
      <trkpt lat="48.393732" lon="15.476564">
        <ele>207.02</ele>
        <time>2017-01-01T00:25:35.963Z</time>
      </trkpt>
      <trkpt lat="48.394316" lon="15.477978">
        <ele>205.73</ele>
        <time>2017-01-01T00:26:02.056Z</time>
      </trkpt>
      <trkpt lat="48.394515" lon="15.478468">
        <ele>205.27</ele>
        <time>2017-01-01T00:26:11.056Z</time>
      </trkpt>
      <trkpt lat="48.394683" lon="15.479345">
        <ele>204.53</ele>
        <time>2017-01-01T00:26:25.367Z</time>
      </trkpt>
      <trkpt lat="48.395056" lon="15.480178">
        <ele>203.92</ele>
        <time>2017-01-01T00:26:41.108Z</time>
      </trkpt>
      <trkpt lat="48.396405" lon="15.481934">
        <ele>202.79</ele>
        <time>2017-01-01T00:27:23.148Z</time>
      </trkpt>
      <trkpt lat="48.397061" lon="15.482272">
        <ele>202.35</ele>
        <time>2017-01-01T00:27:39.477Z</time>
      </trkpt>
      <trkpt lat="48.397428" lon="15.482696">
        <ele>202.12</ele>
        <time>2017-01-01T00:27:50.381Z</time>
      </trkpt>
      <trkpt lat="48.398023" lon="15.483343">
        <ele>201.86</ele>
        <time>2017-01-01T00:28:07.68Z</time>
      </trkpt>
      <trkpt lat="48.398629" lon="15.483843">
        <ele>201.61</ele>
        <time>2017-01-01T00:28:23.962Z</time>
      </trkpt>
      <trkpt lat="48.398722" lon="15.484121">
        <ele>201.59</ele>
        <time>2017-01-01T00:28:28.835Z</time>
      </trkpt>
      <trkpt lat="48.399116" lon="15.484531">
        <ele>201.65</ele>
        <time>2017-01-01T00:28:40.123Z</time>
      </trkpt>
      <trkpt lat="48.399573" lon="15.485154">
        <ele>201.73</ele>
        <time>2017-01-01T00:28:54.657Z</time>
      </trkpt>
      <trkpt lat="48.399954" lon="15.485791">
        <ele>201.78</ele>
        <time>2017-01-01T00:29:08.083Z</time>
      </trkpt>
      <trkpt lat="48.400476" lon="15.486263">
        <ele>201.8</ele>
        <time>2017-01-01T00:29:22.431Z</time>
      </trkpt>
      <trkpt lat="48.400576" lon="15.486544">
        <ele>201.81</ele>
        <time>2017-01-01T00:29:27.421Z</time>
      </trkpt>
      <trkpt lat="48.400093" lon="15.486984">
        <ele>201.79</ele>
        <time>2017-01-01T00:29:40.724Z</time>
      </trkpt>
      <trkpt lat="48.40065" lon="15.4884">
        <ele>201.69</ele>
        <time>2017-01-01T00:30:06.512Z</time>
      </trkpt>
      <trkpt lat="48.400836" lon="15.489466">
        <ele>201.62</ele>
        <time>2017-01-01T00:30:23.791Z</time>
      </trkpt>
      <trkpt lat="48.400851" lon="15.491311">
        <ele>201.46</ele>
        <time>2017-01-01T00:30:52.723Z</time>
      </trkpt>
      <trkpt lat="48.401022" lon="15.49187">
        <ele>201.4</ele>
        <time>2017-01-01T00:31:02.369Z</time>
      </trkpt>
      <trkpt lat="48.401492" lon="15.493373">
        <ele>201.23</ele>
        <time>2017-01-01T00:31:28.405Z</time>
      </trkpt>
      <trkpt lat="48.401781" lon="15.494725">
        <ele>201.24</ele>
        <time>2017-01-01T00:31:50.67Z</time>
      </trkpt>
      <trkpt lat="48.402289" lon="15.496428">
        <ele>201.77</ele>
        <time>2017-01-01T00:32:19.93Z</time>
      </trkpt>
      <trkpt lat="48.402377" lon="15.496845">
        <ele>201.89</ele>
        <time>2017-01-01T00:32:26.789Z</time>
      </trkpt>
      <trkpt lat="48.402273" lon="15.49799">
        <ele>202.85</ele>
        <time>2017-01-01T00:32:44.909Z</time>
      </trkpt>
      <trkpt lat="48.402365" lon="15.499625">
        <ele>204.88</ele>
        <time>2017-01-01T00:33:10.637Z</time>
      </trkpt>
      <trkpt lat="48.401676" lon="15.500092">
        <ele>206.29</ele>
        <time>2017-01-01T00:33:28.437Z</time>
      </trkpt>
      <trkpt lat="48.401719" lon="15.500319">
        <ele>206.42</ele>
        <time>2017-01-01T00:33:32.132Z</time>
      </trkpt>
      <trkpt lat="48.401639" lon="15.501146">
        <ele>206.11</ele>
        <time>2017-01-01T00:33:45.235Z</time>
      </trkpt>
      <trkpt lat="48.401546" lon="15.501543">
        <ele>205.95</ele>
        <time>2017-01-01T00:33:51.834Z</time>
      </trkpt>
      <trkpt lat="48.401494" lon="15.502113">
        <ele>205.48</ele>
        <time>2017-01-01T00:34:00.855Z</time>
      </trkpt>
      <trkpt lat="48.401129" lon="15.503307">
        <ele>204.15</ele>
        <time>2017-01-01T00:34:21.456Z</time>
      </trkpt>
      <trkpt lat="48.400663" lon="15.504407">
        <ele>202.82</ele>
        <time>2017-01-01T00:34:41.899Z</time>
      </trkpt>
      <trkpt lat="48.400417" lon="15.505009">
        <ele>202.57</ele>
        <time>2017-01-01T00:34:52.974Z</time>
      </trkpt>
      <trkpt lat="48.399429" lon="15.506953">
        <ele>203.35</ele>
        <time>2017-01-01T00:35:31.321Z</time>
      </trkpt>
      <trkpt lat="48.399101" lon="15.507615">
        <ele>203.61</ele>
        <time>2017-01-01T00:35:44.26Z</time>
      </trkpt>
      <trkpt lat="48.398622" lon="15.507807">
        <ele>203.83</ele>
        <time>2017-01-01T00:35:55.933Z</time>
      </trkpt>
      <trkpt lat="48.398036" lon="15.508046">
        <ele>203.94</ele>
        <time>2017-01-01T00:36:10.23Z</time>
      </trkpt>
      <trkpt lat="48.397453" lon="15.50862">
        <ele>204.06</ele>
        <time>2017-01-01T00:36:26.646Z</time>
      </trkpt>
      <trkpt lat="48.396824" lon="15.5095">
        <ele>203.86</ele>
        <time>2017-01-01T00:36:46.89Z</time>
      </trkpt>
      <trkpt lat="48.396093" lon="15.510668">
        <ele>203.27</ele>
        <time>2017-01-01T00:37:12.025Z</time>
      </trkpt>
      <trkpt lat="48.395242" lon="15.511894">
        <ele>202.62</ele>
        <time>2017-01-01T00:37:39.796Z</time>
      </trkpt>
      <trkpt lat="48.394773" lon="15.512544">
        <ele>202.17</ele>
        <time>2017-01-01T00:37:54.825Z</time>
      </trkpt>
      <trkpt lat="48.39417" lon="15.513136">
        <ele>201.59</ele>
        <time>2017-01-01T00:38:11.79Z</time>
      </trkpt>
      <trkpt lat="48.392953" lon="15.514084">
        <ele>200.48</ele>
        <time>2017-01-01T00:38:44.074Z</time>
      </trkpt>
      <trkpt lat="48.392431" lon="15.51448">
        <ele>199.98</ele>
        <time>2017-01-01T00:38:57.846Z</time>
      </trkpt>
      <trkpt lat="48.391781" lon="15.515108">
        <ele>199.34</ele>
        <time>2017-01-01T00:39:16.047Z</time>
      </trkpt>
      <trkpt lat="48.391676" lon="15.515228">
        <ele>199.23</ele>
        <time>2017-01-01T00:39:19.153Z</time>
      </trkpt>
      <trkpt lat="48.391742" lon="15.515394">
        <ele>199.17</ele>
        <time>2017-01-01T00:39:22.182Z</time>
      </trkpt>
      <trkpt lat="48.391747" lon="15.515421">
        <ele>199.17</ele>
        <time>2017-01-01T00:39:22.621Z</time>
      </trkpt>
      <trkpt lat="48.390978" lon="15.516036">
        <ele>199.12</ele>
        <time>2017-01-01T00:39:43.138Z</time>
      </trkpt>
      <trkpt lat="48.389351" lon="15.517166">
        <ele>200.02</ele>
        <time>2017-01-01T00:40:25.351Z</time>
      </trkpt>
      <trkpt lat="48.387708" lon="15.518187">
        <ele>200</ele>
        <time>2017-01-01T00:41:07.223Z</time>
      </trkpt>
      <trkpt lat="48.387713" lon="15.518187">
        <ele>200</ele>
        <time>2017-01-01T00:41:07.341Z</time>
      </trkpt>
      <trkpt lat="48.387094" lon="15.518577">
        <ele>200</ele>
        <time>2017-01-01T00:41:23.149Z</time>
      </trkpt>
      <trkpt lat="48.386034" lon="15.519317">
        <ele>202</ele>
        <time>2017-01-01T00:41:50.676Z</time>
      </trkpt>
      <trkpt lat="48.385836" lon="15.51933">
        <ele>202</ele>
        <time>2017-01-01T00:41:55.343Z</time>
      </trkpt>
      <trkpt lat="48.385732" lon="15.519257">
        <ele>202</ele>
        <time>2017-01-01T00:41:58.046Z</time>
      </trkpt>
      <trkpt lat="48.385568" lon="15.518814">
        <ele>202</ele>
        <time>2017-01-01T00:42:05.995Z</time>
      </trkpt>
      <trkpt lat="48.384666" lon="15.519794">
        <ele>202</ele>
        <time>2017-01-01T00:42:32.214Z</time>
      </trkpt>
      <trkpt lat="48.384312" lon="15.520183">
        <ele>202</ele>
        <time>2017-01-01T00:42:42.544Z</time>
      </trkpt>
      <trkpt lat="48.384312" lon="15.520183">
        <ele>202</ele>
        <time>2017-01-01T00:42:42.544Z</time>
      </trkpt>
      <trkpt lat="48.383873" lon="15.520763">
        <ele>200</ele>
        <time>2017-01-01T00:42:56.315Z</time>
      </trkpt>
      <trkpt lat="48.383435" lon="15.521711">
        <ele>202</ele>
        <time>2017-01-01T00:43:14.412Z</time>
      </trkpt>
      <trkpt lat="48.383156" lon="15.523128">
        <ele>202</ele>
        <time>2017-01-01T00:43:37.589Z</time>
      </trkpt>
      <trkpt lat="48.382907" lon="15.524371">
        <ele>202</ele>
        <time>2017-01-01T00:43:57.949Z</time>
      </trkpt>
      <trkpt lat="48.382607" lon="15.526018">
        <ele>202</ele>
        <time>2017-01-01T00:44:24.732Z</time>
      </trkpt>
      <trkpt lat="48.382373" lon="15.528919">
        <ele>200</ele>
        <time>2017-01-01T00:45:10.569Z</time>
      </trkpt>
      <trkpt lat="48.382358" lon="15.531014">
        <ele>200</ele>
        <time>2017-01-01T00:45:43.433Z</time>
      </trkpt>
      <trkpt lat="48.382387" lon="15.533408">
        <ele>204</ele>
        <time>2017-01-01T00:46:20.991Z</time>
      </trkpt>
      <trkpt lat="48.382535" lon="15.535044">
        <ele>204</ele>
        <time>2017-01-01T00:46:46.889Z</time>
      </trkpt>
      <trkpt lat="48.383054" lon="15.538211">
        <ele>205</ele>
        <time>2017-01-01T00:47:38.047Z</time>
      </trkpt>
      <trkpt lat="48.383307" lon="15.539781">
        <ele>202</ele>
        <time>2017-01-01T00:48:03.384Z</time>
      </trkpt>
      <trkpt lat="48.383511" lon="15.541808">
        <ele>203</ele>
        <time>2017-01-01T00:48:35.539Z</time>
      </trkpt>
      <trkpt lat="48.383867" lon="15.54405">
        <ele>200</ele>
        <time>2017-01-01T00:49:11.691Z</time>
      </trkpt>
      <trkpt lat="48.384181" lon="15.545772">
        <ele>199</ele>
        <time>2017-01-01T00:49:39.695Z</time>
      </trkpt>
      <trkpt lat="48.384668" lon="15.54758">
        <ele>199</ele>
        <time>2017-01-01T00:50:10.285Z</time>
      </trkpt>
      <trkpt lat="48.385362" lon="15.549213">
        <ele>199</ele>
        <time>2017-01-01T00:50:40.668Z</time>
      </trkpt>
      <trkpt lat="48.3857" lon="15.550122">
        <ele>199</ele>
        <time>2017-01-01T00:50:56.997Z</time>
      </trkpt>
      <trkpt lat="48.385858" lon="15.550751">
        <ele>200</ele>
        <time>2017-01-01T00:51:07.541Z</time>
      </trkpt>
      <trkpt lat="48.386549" lon="15.553023">
        <ele>201.24</ele>
        <time>2017-01-01T00:51:46.716Z</time>
      </trkpt>
      <trkpt lat="48.386823" lon="15.553916">
        <ele>199.49</ele>
        <time>2017-01-01T00:52:02.137Z</time>
      </trkpt>
      <trkpt lat="48.3868" lon="15.553853">
        <ele>199.38</ele>
        <time>2017-01-01T00:52:03.263Z</time>
      </trkpt>
      <trkpt lat="48.386752" lon="15.554738">
        <ele>198.12</ele>
        <time>2017-01-01T00:52:17.19Z</time>
      </trkpt>
      <trkpt lat="48.386746" lon="15.554724">
        <ele>198.11</ele>
        <time>2017-01-01T00:52:17.451Z</time>
      </trkpt>
      <trkpt lat="48.386815" lon="15.556024">
        <ele>198.1</ele>
        <time>2017-01-01T00:52:37.905Z</time>
      </trkpt>
      <trkpt lat="48.387043" lon="15.556948">
        <ele>198.1</ele>
        <time>2017-01-01T00:52:53.36Z</time>
      </trkpt>
      <trkpt lat="48.387312" lon="15.557762">
        <ele>198.09</ele>
        <time>2017-01-01T00:53:07.612Z</time>
      </trkpt>
      <trkpt lat="48.387495" lon="15.558412">
        <ele>198.09</ele>
        <time>2017-01-01T00:53:18.68Z</time>
      </trkpt>
      <trkpt lat="48.387895" lon="15.559251">
        <ele>198.08</ele>
        <time>2017-01-01T00:53:34.863Z</time>
      </trkpt>
      <trkpt lat="48.388441" lon="15.560226">
        <ele>198.07</ele>
        <time>2017-01-01T00:53:54.842Z</time>
      </trkpt>
      <trkpt lat="48.388621" lon="15.561385">
        <ele>198.09</ele>
        <time>2017-01-01T00:54:13.507Z</time>
      </trkpt>
      <trkpt lat="48.389231" lon="15.562456">
        <ele>198.11</ele>
        <time>2017-01-01T00:54:35.609Z</time>
      </trkpt>
      <trkpt lat="48.389561" lon="15.56431">
        <ele>198.27</ele>
        <time>2017-01-01T00:55:05.707Z</time>
      </trkpt>
      <trkpt lat="48.389903" lon="15.564538">
        <ele>198.34</ele>
        <time>2017-01-01T00:55:14.516Z</time>
      </trkpt>
      <trkpt lat="48.390421" lon="15.565462">
        <ele>198.51</ele>
        <time>2017-01-01T00:55:33.458Z</time>
      </trkpt>
      <trkpt lat="48.391297" lon="15.567311">
        <ele>198.77</ele>
        <time>2017-01-01T00:56:09.045Z</time>
      </trkpt>
      <trkpt lat="48.392267" lon="15.568713">
        <ele>198.8</ele>
        <time>2017-01-01T00:56:40.75Z</time>
      </trkpt>
      <trkpt lat="48.392744" lon="15.569573">
        <ele>198.81</ele>
        <time>2017-01-01T00:56:58.302Z</time>
      </trkpt>
      <trkpt lat="48.393151" lon="15.570011">
        <ele>198.6</ele>
        <time>2017-01-01T00:57:10.093Z</time>
      </trkpt>
      <trkpt lat="48.393833" lon="15.571556">
        <ele>197.6</ele>
        <time>2017-01-01T00:57:39.161Z</time>
      </trkpt>
      <trkpt lat="48.393995" lon="15.572273">
        <ele>197.19</ele>
        <time>2017-01-01T00:57:51.035Z</time>
      </trkpt>
      <trkpt lat="48.394081" lon="15.572496">
        <ele>197.12</ele>
        <time>2017-01-01T00:57:55.072Z</time>
      </trkpt>
      <trkpt lat="48.394081" lon="15.572503">
        <ele>197.12</ele>
        <time>2017-01-01T00:57:55.182Z</time>
      </trkpt>
      <trkpt lat="48.394538" lon="15.573248">
        <ele>197.17</ele>
        <time>2017-01-01T00:58:11.066Z</time>
      </trkpt>
      <trkpt lat="48.395046" lon="15.574325">
        <ele>197.35</ele>
        <time>2017-01-01T00:58:31.763Z</time>
      </trkpt>
      <trkpt lat="48.395381" lon="15.575244">
        <ele>197.6</ele>
        <time>2017-01-01T00:58:48.192Z</time>
      </trkpt>
      <trkpt lat="48.395394" lon="15.575229">
        <ele>197.61</ele>
        <time>2017-01-01T00:58:48.578Z</time>
      </trkpt>
      <trkpt lat="48.395479" lon="15.575497">
        <ele>197.82</ele>
        <time>2017-01-01T00:58:53.227Z</time>
      </trkpt>
      <trkpt lat="48.395441" lon="15.57623">
        <ele>198.68</ele>
        <time>2017-01-01T00:59:04.757Z</time>
      </trkpt>
      <trkpt lat="48.395446" lon="15.576223">
        <ele>198.69</ele>
        <time>2017-01-01T00:59:04.918Z</time>
      </trkpt>
      <trkpt lat="48.395218" lon="15.576228">
        <ele>199.09</ele>
        <time>2017-01-01T00:59:10.287Z</time>
      </trkpt>
      <trkpt lat="48.39509" lon="15.576364">
        <ele>199.28</ele>
        <time>2017-01-01T00:59:13.978Z</time>
      </trkpt>
      <trkpt lat="48.395059" lon="15.576681">
        <ele>199.54</ele>
        <time>2017-01-01T00:59:18.995Z</time>
      </trkpt>
      <trkpt lat="48.393599" lon="15.576661">
        <ele>200.78</ele>
        <time>2017-01-01T00:59:53.376Z</time>
      </trkpt>
      <trkpt lat="48.393737" lon="15.577758">
        <ele>201.31</ele>
        <time>2017-01-01T01:00:10.884Z</time>
      </trkpt>
      <trkpt lat="48.393746" lon="15.577954">
        <ele>201.4</ele>
        <time>2017-01-01T01:00:13.961Z</time>
      </trkpt>
      <trkpt lat="48.392883" lon="15.578503">
        <ele>201.93</ele>
        <time>2017-01-01T01:00:36.031Z</time>
      </trkpt>
      <trkpt lat="48.392853" lon="15.579428">
        <ele>202.1</ele>
        <time>2017-01-01T01:00:50.555Z</time>
      </trkpt>
      <trkpt lat="48.392849" lon="15.579443">
        <ele>202.1</ele>
        <time>2017-01-01T01:00:50.808Z</time>
      </trkpt>
      <trkpt lat="48.393108" lon="15.579545">
        <ele>202.07</ele>
        <time>2017-01-01T01:00:57.113Z</time>
      </trkpt>
      <trkpt lat="48.393106" lon="15.581064">
        <ele>201.66</ele>
        <time>2017-01-01T01:01:20.935Z</time>
      </trkpt>
      <trkpt lat="48.393165" lon="15.581574">
        <ele>201.52</ele>
        <time>2017-01-01T01:01:29.053Z</time>
      </trkpt>
      <trkpt lat="48.393723" lon="15.582652">
        <ele>201.12</ele>
        <time>2017-01-01T01:01:50.465Z</time>
      </trkpt>
      <trkpt lat="48.394108" lon="15.583443">
        <ele>200.81</ele>
        <time>2017-01-01T01:02:05.829Z</time>
      </trkpt>
      <trkpt lat="48.394377" lon="15.58415">
        <ele>200.55</ele>
        <time>2017-01-01T01:02:18.598Z</time>
      </trkpt>
      <trkpt lat="48.394604" lon="15.585236">
        <ele>200.21</ele>
        <time>2017-01-01T01:02:36.448Z</time>
      </trkpt>
      <trkpt lat="48.394855" lon="15.58522">
        <ele>200.11</ele>
        <time>2017-01-01T01:02:42.364Z</time>
      </trkpt>
      <trkpt lat="48.394963" lon="15.585411">
        <ele>200.05</ele>
        <time>2017-01-01T01:02:46.29Z</time>
      </trkpt>
      <trkpt lat="48.394908" lon="15.586015">
        <ele>199.94</ele>
        <time>2017-01-01T01:02:55.85Z</time>
      </trkpt>
      <trkpt lat="48.394806" lon="15.587501">
        <ele>199.72</ele>
        <time>2017-01-01T01:03:19.277Z</time>
      </trkpt>
      <trkpt lat="48.394765" lon="15.588808">
        <ele>199.53</ele>
        <time>2017-01-01T01:03:39.796Z</time>
      </trkpt>
      <trkpt lat="48.394688" lon="15.589746">
        <ele>199.33</ele>
        <time>2017-01-01T01:03:54.617Z</time>
      </trkpt>
      <trkpt lat="48.394629" lon="15.590621">
        <ele>199.08</ele>
        <time>2017-01-01T01:04:08.409Z</time>
      </trkpt>
      <trkpt lat="48.394446" lon="15.592355">
        <ele>198.58</ele>
        <time>2017-01-01T01:04:35.941Z</time>
      </trkpt>
      <trkpt lat="48.393997" lon="15.59545">
        <ele>197.58</ele>
        <time>2017-01-01T01:05:25.616Z</time>
      </trkpt>
      <trkpt lat="48.39348" lon="15.599373">
        <ele>196.25</ele>
        <time>2017-01-01T01:06:28.331Z</time>
      </trkpt>
      <trkpt lat="48.393806" lon="15.600583">
        <ele>195.81</ele>
        <time>2017-01-01T01:06:48.801Z</time>
      </trkpt>
      <trkpt lat="48.393862" lon="15.600911">
        <ele>195.67</ele>
        <time>2017-01-01T01:06:54.104Z</time>
      </trkpt>
      <trkpt lat="48.393889" lon="15.601253">
        <ele>195.48</ele>
        <time>2017-01-01T01:06:59.497Z</time>
      </trkpt>
      <trkpt lat="48.39389" lon="15.601246">
        <ele>195.48</ele>
        <time>2017-01-01T01:06:59.609Z</time>
      </trkpt>
      <trkpt lat="48.393964" lon="15.601742">
        <ele>195.2</ele>
        <time>2017-01-01T01:07:07.58Z</time>
      </trkpt>
      <trkpt lat="48.393961" lon="15.601727">
        <ele>195.2</ele>
        <time>2017-01-01T01:07:07.825Z</time>
      </trkpt>
      <trkpt lat="48.394071" lon="15.602124">
        <ele>194.99</ele>
        <time>2017-01-01T01:07:14.568Z</time>
      </trkpt>
      <trkpt lat="48.394081" lon="15.603462">
        <ele>194.46</ele>
        <time>2017-01-01T01:07:35.552Z</time>
      </trkpt>
      <trkpt lat="48.394029" lon="15.603945">
        <ele>194.29</ele>
        <time>2017-01-01T01:07:43.225Z</time>
      </trkpt>
      <trkpt lat="48.393635" lon="15.605763">
        <ele>193.61</ele>
        <time>2017-01-01T01:08:13.207Z</time>
      </trkpt>
      <trkpt lat="48.393138" lon="15.609297">
        <ele>192.73</ele>
        <time>2017-01-01T01:09:09.851Z</time>
      </trkpt>
      <trkpt lat="48.39311" lon="15.609469">
        <ele>192.73</ele>
        <time>2017-01-01T01:09:12.624Z</time>
      </trkpt>
      <trkpt lat="48.392255" lon="15.609329">
        <ele>192.76</ele>
        <time>2017-01-01T01:09:32.876Z</time>
      </trkpt>
      <trkpt lat="48.391454" lon="15.609428">
        <ele>193.1</ele>
        <time>2017-01-01T01:09:51.801Z</time>
      </trkpt>
      <trkpt lat="48.390259" lon="15.609413">
        <ele>193.72</ele>
        <time>2017-01-01T01:10:19.942Z</time>
      </trkpt>
      <trkpt lat="48.390068" lon="15.609429">
        <ele>193.82</ele>
        <time>2017-01-01T01:10:24.447Z</time>
      </trkpt>
      <trkpt lat="48.39004" lon="15.60998">
        <ele>193.96</ele>
        <time>2017-01-01T01:10:33.114Z</time>
      </trkpt>
      <trkpt lat="48.390001" lon="15.610286">
        <ele>194.01</ele>
        <time>2017-01-01T01:10:37.993Z</time>
      </trkpt>
      <trkpt lat="48.390023" lon="15.610428">
        <ele>194.03</ele>
        <time>2017-01-01T01:10:40.276Z</time>
      </trkpt>
      <trkpt lat="48.390045" lon="15.610414">
        <ele>194.03</ele>
        <time>2017-01-01T01:10:40.839Z</time>
      </trkpt>
      <trkpt lat="48.3902" lon="15.610167">
        <ele>194.04</ele>
        <time>2017-01-01T01:10:46.157Z</time>
      </trkpt>
      <trkpt lat="48.391529" lon="15.610247">
        <ele>194.08</ele>
        <time>2017-01-01T01:11:17.477Z</time>
      </trkpt>
      <trkpt lat="48.391771" lon="15.610307">
        <ele>194.09</ele>
        <time>2017-01-01T01:11:23.253Z</time>
      </trkpt>
      <trkpt lat="48.392356" lon="15.610445">
        <ele>194.16</ele>
        <time>2017-01-01T01:11:37.197Z</time>
      </trkpt>
      <trkpt lat="48.393513" lon="15.610627">
        <ele>194.29</ele>
        <time>2017-01-01T01:12:04.59Z</time>
      </trkpt>
      <trkpt lat="48.394718" lon="15.610943">
        <ele>194.49</ele>
        <time>2017-01-01T01:12:33.393Z</time>
      </trkpt>
      <trkpt lat="48.397114" lon="15.611912">
        <ele>195.05</ele>
        <time>2017-01-01T01:13:31.824Z</time>
      </trkpt>
      <trkpt lat="48.397448" lon="15.611986">
        <ele>195.12</ele>
        <time>2017-01-01T01:13:39.774Z</time>
      </trkpt>
      <trkpt lat="48.397808" lon="15.612026">
        <ele>195.23</ele>
        <time>2017-01-01T01:13:48.274Z</time>
      </trkpt>
      <trkpt lat="48.398082" lon="15.612069">
        <ele>195.32</ele>
        <time>2017-01-01T01:13:54.761Z</time>
      </trkpt>
      <trkpt lat="48.39808" lon="15.612069">
        <ele>195.32</ele>
        <time>2017-01-01T01:13:54.808Z</time>
      </trkpt>
      <trkpt lat="48.398633" lon="15.612481">
        <ele>195.52</ele>
        <time>2017-01-01T01:14:09.344Z</time>
      </trkpt>
      <trkpt lat="48.398638" lon="15.612478">
        <ele>195.52</ele>
        <time>2017-01-01T01:14:09.471Z</time>
      </trkpt>
      <trkpt lat="48.399241" lon="15.612951">
        <ele>195.72</ele>
        <time>2017-01-01T01:14:25.491Z</time>
      </trkpt>
      <trkpt lat="48.400465" lon="15.61392">
        <ele>196.09</ele>
        <time>2017-01-01T01:14:58.073Z</time>
      </trkpt>
      <trkpt lat="48.401228" lon="15.614603">
        <ele>196.28</ele>
        <time>2017-01-01T01:15:18.99Z</time>
      </trkpt>
      <trkpt lat="48.40128" lon="15.615054">
        <ele>196.34</ele>
        <time>2017-01-01T01:15:26.167Z</time>
      </trkpt>
      <trkpt lat="48.401328" lon="15.617252">
        <ele>196.54</ele>
        <time>2017-01-01T01:16:00.65Z</time>
      </trkpt>
      <trkpt lat="48.401385" lon="15.619922">
        <ele>196.68</ele>
        <time>2017-01-01T01:16:42.537Z</time>
      </trkpt>
      <trkpt lat="48.401465" lon="15.62219">
        <ele>196.8</ele>
        <time>2017-01-01T01:17:18.149Z</time>
      </trkpt>
      <trkpt lat="48.401485" lon="15.624319">
        <ele>196.75</ele>
        <time>2017-01-01T01:17:51.535Z</time>
      </trkpt>
      <trkpt lat="48.401473" lon="15.624333">
        <ele>196.75</ele>
        <time>2017-01-01T01:17:51.893Z</time>
      </trkpt>
      <trkpt lat="48.401458" lon="15.625344">
        <ele>196.59</ele>
        <time>2017-01-01T01:18:07.749Z</time>
      </trkpt>
      <trkpt lat="48.401458" lon="15.625341">
        <ele>196.59</ele>
        <time>2017-01-01T01:18:07.796Z</time>
      </trkpt>
      <trkpt lat="48.401443" lon="15.626123">
        <ele>196.4</ele>
        <time>2017-01-01T01:18:20.063Z</time>
      </trkpt>
      <trkpt lat="48.401282" lon="15.626615">
        <ele>196.26</ele>
        <time>2017-01-01T01:18:28.659Z</time>
      </trkpt>
      <trkpt lat="48.400875" lon="15.627614">
        <ele>196.22</ele>
        <time>2017-01-01T01:18:47.023Z</time>
      </trkpt>
      <trkpt lat="48.400758" lon="15.628654">
        <ele>196.37</ele>
        <time>2017-01-01T01:19:03.561Z</time>
      </trkpt>
      <trkpt lat="48.4006" lon="15.629829">
        <ele>196.55</ele>
        <time>2017-01-01T01:19:22.357Z</time>
      </trkpt>
      <trkpt lat="48.400679" lon="15.630378">
        <ele>196.64</ele>
        <time>2017-01-01T01:19:31.164Z</time>
      </trkpt>
      <trkpt lat="48.400877" lon="15.630871">
        <ele>196.68</ele>
        <time>2017-01-01T01:19:40.192Z</time>
      </trkpt>
      <trkpt lat="48.400745" lon="15.631838">
        <ele>196.76</ele>
        <time>2017-01-01T01:19:55.67Z</time>
      </trkpt>
      <trkpt lat="48.400736" lon="15.632653">
        <ele>196.73</ele>
        <time>2017-01-01T01:20:08.451Z</time>
      </trkpt>
      <trkpt lat="48.400216" lon="15.635085">
        <ele>196.41</ele>
        <time>2017-01-01T01:20:48.503Z</time>
      </trkpt>
      <trkpt lat="48.399586" lon="15.637528">
        <ele>196.08</ele>
        <time>2017-01-01T01:21:29.583Z</time>
      </trkpt>
      <trkpt lat="48.398597" lon="15.640589">
        <ele>195.67</ele>
        <time>2017-01-01T01:22:22.933Z</time>
      </trkpt>
      <trkpt lat="48.397839" lon="15.642659">
        <ele>195.4</ele>
        <time>2017-01-01T01:22:59.977Z</time>
      </trkpt>
      <trkpt lat="48.397334" lon="15.643727">
        <ele>195.26</ele>
        <time>2017-01-01T01:23:20.517Z</time>
      </trkpt>
      <trkpt lat="48.39694" lon="15.644166">
        <ele>195.18</ele>
        <time>2017-01-01T01:23:32.07Z</time>
      </trkpt>
      <trkpt lat="48.396692" lon="15.644691">
        <ele>195.12</ele>
        <time>2017-01-01T01:23:42.164Z</time>
      </trkpt>
      <trkpt lat="48.395834" lon="15.64605">
        <ele>194.92</ele>
        <time>2017-01-01T01:24:11.53Z</time>
      </trkpt>
      <trkpt lat="48.395167" lon="15.646938">
        <ele>194.75</ele>
        <time>2017-01-01T01:24:32.521Z</time>
      </trkpt>
      <trkpt lat="48.394895" lon="15.647248">
        <ele>194.67</ele>
        <time>2017-01-01T01:24:40.558Z</time>
      </trkpt>
      <trkpt lat="48.394615" lon="15.647583">
        <ele>194.58</ele>
        <time>2017-01-01T01:24:48.984Z</time>
      </trkpt>
      <trkpt lat="48.394615" lon="15.64759">
        <ele>194.58</ele>
        <time>2017-01-01T01:24:49.094Z</time>
      </trkpt>
      <trkpt lat="48.393146" lon="15.649187">
        <ele>194.33</ele>
        <time>2017-01-01T01:25:31.8Z</time>
      </trkpt>
      <trkpt lat="48.391721" lon="15.650735">
        <ele>194.09</ele>
        <time>2017-01-01T01:26:13.217Z</time>
      </trkpt>
      <trkpt lat="48.389859" lon="15.652803">
        <ele>193.96</ele>
        <time>2017-01-01T01:27:07.755Z</time>
      </trkpt>
      <trkpt lat="48.387504" lon="15.655328">
        <ele>193.96</ele>
        <time>2017-01-01T01:28:15.899Z</time>
      </trkpt>
      <trkpt lat="48.385107" lon="15.657931">
        <ele>193.97</ele>
        <time>2017-01-01T01:29:25.561Z</time>
      </trkpt>
      <trkpt lat="48.383467" lon="15.659899">
        <ele>193.91</ele>
        <time>2017-01-01T01:30:15Z</time>
      </trkpt>
      <trkpt lat="48.382566" lon="15.661329">
        <ele>193.78</ele>
        <time>2017-01-01T01:30:45.875Z</time>
      </trkpt>
      <trkpt lat="48.381914" lon="15.662405">
        <ele>193.68</ele>
        <time>2017-01-01T01:31:08.691Z</time>
      </trkpt>
      <trkpt lat="48.381195" lon="15.663862">
        <ele>193.49</ele>
        <time>2017-01-01T01:31:37.134Z</time>
      </trkpt>
      <trkpt lat="48.380533" lon="15.66549">
        <ele>193.3</ele>
        <time>2017-01-01T01:32:07.053Z</time>
      </trkpt>
      <trkpt lat="48.38028" lon="15.666393">
        <ele>193.2</ele>
        <time>2017-01-01T01:32:22.42Z</time>
      </trkpt>
      <trkpt lat="48.379756" lon="15.668734">
        <ele>193.07</ele>
        <time>2017-01-01T01:33:01.16Z</time>
      </trkpt>
      <trkpt lat="48.379394" lon="15.671176">
        <ele>193.07</ele>
        <time>2017-01-01T01:33:40.404Z</time>
      </trkpt>
      <trkpt lat="48.379294" lon="15.672649">
        <ele>193.08</ele>
        <time>2017-01-01T01:34:03.63Z</time>
      </trkpt>
      <trkpt lat="48.379328" lon="15.673986">
        <ele>193.13</ele>
        <time>2017-01-01T01:34:24.619Z</time>
      </trkpt>
      <trkpt lat="48.379543" lon="15.67583">
        <ele>193.25</ele>
        <time>2017-01-01T01:34:53.985Z</time>
      </trkpt>
      <trkpt lat="48.380313" lon="15.680323">
        <ele>193.54</ele>
        <time>2017-01-01T01:36:06.76Z</time>
      </trkpt>
      <trkpt lat="48.380639" lon="15.682584">
        <ele>193.72</ele>
        <time>2017-01-01T01:36:43.048Z</time>
      </trkpt>
      <trkpt lat="48.380949" lon="15.685037">
        <ele>193.94</ele>
        <time>2017-01-01T01:37:22.213Z</time>
      </trkpt>
      <trkpt lat="48.381333" lon="15.686033">
        <ele>194.04</ele>
        <time>2017-01-01T01:37:40.265Z</time>
      </trkpt>
      <trkpt lat="48.381851" lon="15.687164">
        <ele>194.1</ele>
        <time>2017-01-01T01:38:01.795Z</time>
      </trkpt>
      <trkpt lat="48.382269" lon="15.687925">
        <ele>194.04</ele>
        <time>2017-01-01T01:38:17.267Z</time>
      </trkpt>
      <trkpt lat="48.382269" lon="15.687925">
        <ele>194.04</ele>
        <time>2017-01-01T01:38:17.267Z</time>
      </trkpt>
      <trkpt lat="48.382954" lon="15.689364">
        <ele>193.78</ele>
        <time>2017-01-01T01:38:45.01Z</time>
      </trkpt>
      <trkpt lat="48.383324" lon="15.690151">
        <ele>193.67</ele>
        <time>2017-01-01T01:39:00.12Z</time>
      </trkpt>
      <trkpt lat="48.383609" lon="15.690854">
        <ele>193.58</ele>
        <time>2017-01-01T01:39:13.029Z</time>
      </trkpt>
      <trkpt lat="48.383868" lon="15.691939">
        <ele>193.68</ele>
        <time>2017-01-01T01:39:31.107Z</time>
      </trkpt>
      <trkpt lat="48.384698" lon="15.69374">
        <ele>194.24</ele>
        <time>2017-01-01T01:40:05.458Z</time>
      </trkpt>
      <trkpt lat="48.385127" lon="15.694884">
        <ele>194.57</ele>
        <time>2017-01-01T01:40:26.05Z</time>
      </trkpt>
      <trkpt lat="48.385886" lon="15.697469">
        <ele>195.28</ele>
        <time>2017-01-01T01:41:10.36Z</time>
      </trkpt>
      <trkpt lat="48.386238" lon="15.698654">
        <ele>195.48</ele>
        <time>2017-01-01T01:41:30.711Z</time>
      </trkpt>
      <trkpt lat="48.386483" lon="15.700415">
        <ele>195.76</ele>
        <time>2017-01-01T01:41:58.928Z</time>
      </trkpt>
      <trkpt lat="48.386623" lon="15.702267">
        <ele>195.76</ele>
        <time>2017-01-01T01:42:28.162Z</time>
      </trkpt>
      <trkpt lat="48.386671" lon="15.704939">
        <ele>195.47</ele>
        <time>2017-01-01T01:43:10.086Z</time>
      </trkpt>
      <trkpt lat="48.386576" lon="15.708276">
        <ele>195.09</ele>
        <time>2017-01-01T01:44:02.473Z</time>
      </trkpt>
      <trkpt lat="48.386353" lon="15.711028">
        <ele>194.6</ele>
        <time>2017-01-01T01:44:45.955Z</time>
      </trkpt>
      <trkpt lat="48.386051" lon="15.712964">
        <ele>194.11</ele>
        <time>2017-01-01T01:45:17.142Z</time>
      </trkpt>
      <trkpt lat="48.385502" lon="15.715179">
        <ele>193.52</ele>
        <time>2017-01-01T01:45:54.211Z</time>
      </trkpt>
      <trkpt lat="48.384665" lon="15.717411">
        <ele>192.76</ele>
        <time>2017-01-01T01:46:34.387Z</time>
      </trkpt>
      <trkpt lat="48.383896" lon="15.71891">
        <ele>192.15</ele>
        <time>2017-01-01T01:47:04.064Z</time>
      </trkpt>
      <trkpt lat="48.383701" lon="15.719264">
        <ele>192</ele>
        <time>2017-01-01T01:47:11.263Z</time>
      </trkpt>
      <trkpt lat="48.3837" lon="15.719267">
        <ele>192</ele>
        <time>2017-01-01T01:47:11.316Z</time>
      </trkpt>
      <trkpt lat="48.383257" lon="15.720039">
        <ele>191.91</ele>
        <time>2017-01-01T01:47:27.299Z</time>
      </trkpt>
      <trkpt lat="48.383259" lon="15.720058">
        <ele>191.91</ele>
        <time>2017-01-01T01:47:27.6Z</time>
      </trkpt>
      <trkpt lat="48.380371" lon="15.725084">
        <ele>191.23</ele>
        <time>2017-01-01T01:49:11.716Z</time>
      </trkpt>
      <trkpt lat="48.378864" lon="15.727902">
        <ele>190.77</ele>
        <time>2017-01-01T01:50:08.403Z</time>
      </trkpt>
      <trkpt lat="48.377587" lon="15.729805">
        <ele>190.42</ele>
        <time>2017-01-01T01:50:50.775Z</time>
      </trkpt>
      <trkpt lat="48.375257" lon="15.733112">
        <ele>189.61</ele>
        <time>2017-01-01T01:52:06.285Z</time>
      </trkpt>
      <trkpt lat="48.373498" lon="15.735633">
        <ele>188.93</ele>
        <time>2017-01-01T01:53:03.555Z</time>
      </trkpt>
      <trkpt lat="48.372779" lon="15.736719">
        <ele>188.65</ele>
        <time>2017-01-01T01:53:27.575Z</time>
      </trkpt>
      <trkpt lat="48.371716" lon="15.738647">
        <ele>188.36</ele>
        <time>2017-01-01T01:54:06.837Z</time>
      </trkpt>
      <trkpt lat="48.37112" lon="15.739904">
        <ele>188.34</ele>
        <time>2017-01-01T01:54:31.042Z</time>
      </trkpt>
      <trkpt lat="48.370593" lon="15.741313">
        <ele>188.33</ele>
        <time>2017-01-01T01:54:56.393Z</time>
      </trkpt>
      <trkpt lat="48.370257" lon="15.742674">
        <ele>188.43</ele>
        <time>2017-01-01T01:55:19.165Z</time>
      </trkpt>
      <trkpt lat="48.370031" lon="15.743837">
        <ele>188.54</ele>
        <time>2017-01-01T01:55:38.172Z</time>
      </trkpt>
      <trkpt lat="48.369865" lon="15.745784">
        <ele>188.71</ele>
        <time>2017-01-01T01:56:08.969Z</time>
      </trkpt>
      <trkpt lat="48.369851" lon="15.747541">
        <ele>188.71</ele>
        <time>2017-01-01T01:56:36.538Z</time>
      </trkpt>
      <trkpt lat="48.369938" lon="15.749407">
        <ele>188.55</ele>
        <time>2017-01-01T01:57:05.887Z</time>
      </trkpt>
      <trkpt lat="48.370344" lon="15.752902">
        <ele>188.26</ele>
        <time>2017-01-01T01:58:01.549Z</time>
      </trkpt>
      <trkpt lat="48.37062" lon="15.755806">
        <ele>188.05</ele>
        <time>2017-01-01T01:58:47.573Z</time>
      </trkpt>
      <trkpt lat="48.370399" lon="15.756571">
        <ele>188.1</ele>
        <time>2017-01-01T01:59:00.655Z</time>
      </trkpt>
      <trkpt lat="48.370312" lon="15.757008">
        <ele>188.13</ele>
        <time>2017-01-01T01:59:07.811Z</time>
      </trkpt>
      <trkpt lat="48.370355" lon="15.757648">
        <ele>188.35</ele>
        <time>2017-01-01T01:59:17.903Z</time>
      </trkpt>
      <trkpt lat="48.370563" lon="15.759612">
        <ele>189.39</ele>
        <time>2017-01-01T01:59:49.104Z</time>
      </trkpt>
      <trkpt lat="48.370647" lon="15.759962">
        <ele>189.58</ele>
        <time>2017-01-01T01:59:54.933Z</time>
      </trkpt>
      <trkpt lat="48.370795" lon="15.760113">
        <ele>189.64</ele>
        <time>2017-01-01T01:59:59.145Z</time>
      </trkpt>
      <trkpt lat="48.371081" lon="15.760294">
        <ele>189.53</ele>
        <time>2017-01-01T02:00:06.452Z</time>
      </trkpt>
      <trkpt lat="48.371198" lon="15.760611">
        <ele>189.45</ele>
        <time>2017-01-01T02:00:12.131Z</time>
      </trkpt>
      <trkpt lat="48.371276" lon="15.76162">
        <ele>189</ele>
        <time>2017-01-01T02:00:28.068Z</time>
      </trkpt>
      <trkpt lat="48.371327" lon="15.762835">
        <ele>188.35</ele>
        <time>2017-01-01T02:00:47.168Z</time>
      </trkpt>
      <trkpt lat="48.371386" lon="15.76339">
        <ele>188.05</ele>
        <time>2017-01-01T02:00:55.986Z</time>
      </trkpt>
      <trkpt lat="48.371381" lon="15.763409">
        <ele>188.05</ele>
        <time>2017-01-01T02:00:56.306Z</time>
      </trkpt>
      <trkpt lat="48.371434" lon="15.76397">
        <ele>188.33</ele>
        <time>2017-01-01T02:01:05.196Z</time>
      </trkpt>
      <trkpt lat="48.371558" lon="15.764403">
        <ele>188.56</ele>
        <time>2017-01-01T02:01:12.59Z</time>
      </trkpt>
      <trkpt lat="48.371859" lon="15.765663">
        <ele>189.15</ele>
        <time>2017-01-01T02:01:33.591Z</time>
      </trkpt>
      <trkpt lat="48.371897" lon="15.766228">
        <ele>189.3</ele>
        <time>2017-01-01T02:01:42.5Z</time>
      </trkpt>
      <trkpt lat="48.372096" lon="15.766623">
        <ele>189.43</ele>
        <time>2017-01-01T02:01:50.269Z</time>
      </trkpt>
      <trkpt lat="48.372418" lon="15.768052">
        <ele>189.5</ele>
        <time>2017-01-01T02:02:13.936Z</time>
      </trkpt>
      <trkpt lat="48.373389" lon="15.772241">
        <ele>189.27</ele>
        <time>2017-01-01T02:03:23.52Z</time>
      </trkpt>
      <trkpt lat="48.374237" lon="15.775697">
        <ele>189.07</ele>
        <time>2017-01-01T02:04:21.3Z</time>
      </trkpt>
      <trkpt lat="48.374951" lon="15.778285">
        <ele>188.96</ele>
        <time>2017-01-01T02:05:05.245Z</time>
      </trkpt>
      <trkpt lat="48.375575" lon="15.780158">
        <ele>188.92</ele>
        <time>2017-01-01T02:05:38.098Z</time>
      </trkpt>
      <trkpt lat="48.376483" lon="15.782667">
        <ele>188.88</ele>
        <time>2017-01-01T02:06:22.891Z</time>
      </trkpt>
      <trkpt lat="48.377039" lon="15.784052">
        <ele>188.86</ele>
        <time>2017-01-01T02:06:48.258Z</time>
      </trkpt>
      <trkpt lat="48.378252" lon="15.786929">
        <ele>188.79</ele>
        <time>2017-01-01T02:07:41.67Z</time>
      </trkpt>
      <trkpt lat="48.378725" lon="15.788417">
        <ele>188.75</ele>
        <time>2017-01-01T02:08:07.534Z</time>
      </trkpt>
      <trkpt lat="48.379051" lon="15.789799">
        <ele>188.54</ele>
        <time>2017-01-01T02:08:30.532Z</time>
      </trkpt>
      <trkpt lat="48.379342" lon="15.791369">
        <ele>188.09</ele>
        <time>2017-01-01T02:08:56.096Z</time>
      </trkpt>
      <trkpt lat="48.379569" lon="15.793691">
        <ele>187.46</ele>
        <time>2017-01-01T02:09:32.911Z</time>
      </trkpt>
      <trkpt lat="48.379643" lon="15.795841">
        <ele>186.87</ele>
        <time>2017-01-01T02:10:06.682Z</time>
      </trkpt>
      <trkpt lat="48.379566" lon="15.798829">
        <ele>186.21</ele>
        <time>2017-01-01T02:10:53.589Z</time>
      </trkpt>
      <trkpt lat="48.379441" lon="15.800404">
        <ele>185.85</ele>
        <time>2017-01-01T02:11:18.47Z</time>
      </trkpt>
      <trkpt lat="48.379249" lon="15.802209">
        <ele>185.65</ele>
        <time>2017-01-01T02:11:47.143Z</time>
      </trkpt>
      <trkpt lat="48.379011" lon="15.803681">
        <ele>185.63</ele>
        <time>2017-01-01T02:12:10.904Z</time>
      </trkpt>
      <trkpt lat="48.378384" lon="15.807172">
        <ele>185.57</ele>
        <time>2017-01-01T02:13:07.623Z</time>
      </trkpt>
      <trkpt lat="48.377923" lon="15.809591">
        <ele>185.61</ele>
        <time>2017-01-01T02:13:47.092Z</time>
      </trkpt>
      <trkpt lat="48.377616" lon="15.811714">
        <ele>185.7</ele>
        <time>2017-01-01T02:14:21.172Z</time>
      </trkpt>
      <trkpt lat="48.377593" lon="15.814211">
        <ele>185.79</ele>
        <time>2017-01-01T02:15:00.347Z</time>
      </trkpt>
      <trkpt lat="48.378076" lon="15.819606">
        <ele>186.1</ele>
        <time>2017-01-01T02:16:25.74Z</time>
      </trkpt>
      <trkpt lat="48.378779" lon="15.824495">
        <ele>186.48</ele>
        <time>2017-01-01T02:17:44.2Z</time>
      </trkpt>
      <trkpt lat="48.378956" lon="15.826174">
        <ele>186.6</ele>
        <time>2017-01-01T02:18:10.866Z</time>
      </trkpt>
      <trkpt lat="48.379098" lon="15.828151">
        <ele>186.9</ele>
        <time>2017-01-01T02:18:42.059Z</time>
      </trkpt>
      <trkpt lat="48.379268" lon="15.831037">
        <ele>187.55</ele>
        <time>2017-01-01T02:19:27.508Z</time>
      </trkpt>
      <trkpt lat="48.379288" lon="15.833106">
        <ele>188.01</ele>
        <time>2017-01-01T02:19:59.967Z</time>
      </trkpt>
      <trkpt lat="48.379276" lon="15.834426">
        <ele>188.39</ele>
        <time>2017-01-01T02:20:20.676Z</time>
      </trkpt>
      <trkpt lat="48.379206" lon="15.836462">
        <ele>189.11</ele>
        <time>2017-01-01T02:20:52.657Z</time>
      </trkpt>
      <trkpt lat="48.379039" lon="15.839677">
        <ele>190.25</ele>
        <time>2017-01-01T02:21:43.243Z</time>
      </trkpt>
      <trkpt lat="48.378873" lon="15.84108">
        <ele>190.87</ele>
        <time>2017-01-01T02:22:05.596Z</time>
      </trkpt>
      <trkpt lat="48.378608" lon="15.84274">
        <ele>191.74</ele>
        <time>2017-01-01T02:22:32.374Z</time>
      </trkpt>
      <trkpt lat="48.378401" lon="15.84382">
        <ele>192.31</ele>
        <time>2017-01-01T02:22:50.003Z</time>
      </trkpt>
      <trkpt lat="48.377976" lon="15.845409">
        <ele>193.16</ele>
        <time>2017-01-01T02:23:16.864Z</time>
      </trkpt>
      <trkpt lat="48.377647" lon="15.846268">
        <ele>193.61</ele>
        <time>2017-01-01T02:23:32.408Z</time>
      </trkpt>
      <trkpt lat="48.37689" lon="15.848027">
        <ele>194.57</ele>
        <time>2017-01-01T02:24:05.259Z</time>
      </trkpt>
      <trkpt lat="48.376193" lon="15.849355">
        <ele>195.25</ele>
        <time>2017-01-01T02:24:31.781Z</time>
      </trkpt>
      <trkpt lat="48.375448" lon="15.850664">
        <ele>195.76</ele>
        <time>2017-01-01T02:24:58.79Z</time>
      </trkpt>
      <trkpt lat="48.374799" lon="15.851807">
        <ele>196.2</ele>
        <time>2017-01-01T02:25:22.35Z</time>
      </trkpt>
      <trkpt lat="48.374503" lon="15.852295">
        <ele>195.96</ele>
        <time>2017-01-01T02:25:32.703Z</time>
      </trkpt>
      <trkpt lat="48.374211" lon="15.852524">
        <ele>195.43</ele>
        <time>2017-01-01T02:25:40.458Z</time>
      </trkpt>
      <trkpt lat="48.373357" lon="15.853293">
        <ele>193.82</ele>
        <time>2017-01-01T02:26:03.909Z</time>
      </trkpt>
      <trkpt lat="48.373189" lon="15.853571">
        <ele>193.36</ele>
        <time>2017-01-01T02:26:09.793Z</time>
      </trkpt>
      <trkpt lat="48.372889" lon="15.854552">
        <ele>191.92</ele>
        <time>2017-01-01T02:26:26.727Z</time>
      </trkpt>
      <trkpt lat="48.372882" lon="15.854557">
        <ele>191.9</ele>
        <time>2017-01-01T02:26:26.909Z</time>
      </trkpt>
      <trkpt lat="48.372543" lon="15.854408">
        <ele>191.13</ele>
        <time>2017-01-01T02:26:35.226Z</time>
      </trkpt>
      <trkpt lat="48.371924" lon="15.85439">
        <ele>189.71</ele>
        <time>2017-01-01T02:26:49.805Z</time>
      </trkpt>
      <trkpt lat="48.37121" lon="15.854661">
        <ele>188.03</ele>
        <time>2017-01-01T02:27:07.146Z</time>
      </trkpt>
      <trkpt lat="48.370629" lon="15.854748">
        <ele>186.86</ele>
        <time>2017-01-01T02:27:20.895Z</time>
      </trkpt>
      <trkpt lat="48.36926" lon="15.854836">
        <ele>184.58</ele>
        <time>2017-01-01T02:27:53.161Z</time>
      </trkpt>
      <trkpt lat="48.368818" lon="15.854851">
        <ele>183.84</ele>
        <time>2017-01-01T02:28:03.572Z</time>
      </trkpt>
      <trkpt lat="48.368563" lon="15.854877">
        <ele>183.51</ele>
        <time>2017-01-01T02:28:09.59Z</time>
      </trkpt>
      <trkpt lat="48.368635" lon="15.855123">
        <ele>183.34</ele>
        <time>2017-01-01T02:28:13.8Z</time>
      </trkpt>
      <trkpt lat="48.368875" lon="15.855187">
        <ele>183.12</ele>
        <time>2017-01-01T02:28:19.54Z</time>
      </trkpt>
      <trkpt lat="48.369123" lon="15.855206">
        <ele>182.99</ele>
        <time>2017-01-01T02:28:25.387Z</time>
      </trkpt>
      <trkpt lat="48.369267" lon="15.856486">
        <ele>182.76</ele>
        <time>2017-01-01T02:28:45.754Z</time>
      </trkpt>
      <trkpt lat="48.369749" lon="15.859364">
        <ele>182.24</ele>
        <time>2017-01-01T02:29:32.314Z</time>
      </trkpt>
      <trkpt lat="48.370319" lon="15.861379">
        <ele>181.92</ele>
        <time>2017-01-01T02:30:06.66Z</time>
      </trkpt>
      <trkpt lat="48.371227" lon="15.863697">
        <ele>181.62</ele>
        <time>2017-01-01T02:30:48.848Z</time>
      </trkpt>
      <trkpt lat="48.371551" lon="15.864758">
        <ele>181.49</ele>
        <time>2017-01-01T02:31:07.159Z</time>
      </trkpt>
      <trkpt lat="48.371681" lon="15.865575">
        <ele>181.48</ele>
        <time>2017-01-01T02:31:20.338Z</time>
      </trkpt>
      <trkpt lat="48.371536" lon="15.8668">
        <ele>181.56</ele>
        <time>2017-01-01T02:31:39.858Z</time>
      </trkpt>
      <trkpt lat="48.371321" lon="15.867614">
        <ele>181.63</ele>
        <time>2017-01-01T02:31:53.596Z</time>
      </trkpt>
      <trkpt lat="48.370451" lon="15.869576">
        <ele>181.82</ele>
        <time>2017-01-01T02:32:30.573Z</time>
      </trkpt>
      <trkpt lat="48.369476" lon="15.87126">
        <ele>182</ele>
        <time>2017-01-01T02:33:05.576Z</time>
      </trkpt>
      <trkpt lat="48.367528" lon="15.874138">
        <ele>182.33</ele>
        <time>2017-01-01T02:34:09.944Z</time>
      </trkpt>
      <trkpt lat="48.365992" lon="15.875871">
        <ele>182.57</ele>
        <time>2017-01-01T02:34:55.195Z</time>
      </trkpt>
      <trkpt lat="48.364391" lon="15.877363">
        <ele>182.84</ele>
        <time>2017-01-01T02:35:39.572Z</time>
      </trkpt>
      <trkpt lat="48.363835" lon="15.877842">
        <ele>182.93</ele>
        <time>2017-01-01T02:35:54.669Z</time>
      </trkpt>
      <trkpt lat="48.361972" lon="15.87951">
        <ele>183.34</ele>
        <time>2017-01-01T02:36:45.753Z</time>
      </trkpt>
      <trkpt lat="48.361336" lon="15.880036">
        <ele>183.52</ele>
        <time>2017-01-01T02:37:02.853Z</time>
      </trkpt>
      <trkpt lat="48.361096" lon="15.879996">
        <ele>183.58</ele>
        <time>2017-01-01T02:37:08.539Z</time>
      </trkpt>
      <trkpt lat="48.360669" lon="15.879683">
        <ele>183.7</ele>
        <time>2017-01-01T02:37:19.726Z</time>
      </trkpt>
      <trkpt lat="48.360059" lon="15.879687">
        <ele>183.85</ele>
        <time>2017-01-01T02:37:34.09Z</time>
      </trkpt>
      <trkpt lat="48.358885" lon="15.879785">
        <ele>184.13</ele>
        <time>2017-01-01T02:38:01.778Z</time>
      </trkpt>
      <trkpt lat="48.358707" lon="15.880118">
        <ele>184.17</ele>
        <time>2017-01-01T02:38:08.471Z</time>
      </trkpt>
      <trkpt lat="48.358464" lon="15.880411">
        <ele>184.15</ele>
        <time>2017-01-01T02:38:15.807Z</time>
      </trkpt>
      <trkpt lat="48.358027" lon="15.88047">
        <ele>184.13</ele>
        <time>2017-01-01T02:38:26.139Z</time>
      </trkpt>
      <trkpt lat="48.35794" lon="15.880907">
        <ele>184.06</ele>
        <time>2017-01-01T02:38:33.296Z</time>
      </trkpt>
      <trkpt lat="48.357584" lon="15.882057">
        <ele>183.65</ele>
        <time>2017-01-01T02:38:53.195Z</time>
      </trkpt>
      <trkpt lat="48.357586" lon="15.882045">
        <ele>183.64</ele>
        <time>2017-01-01T02:38:53.389Z</time>
      </trkpt>
      <trkpt lat="48.357333" lon="15.883082">
        <ele>183.21</ele>
        <time>2017-01-01T02:39:10.719Z</time>
      </trkpt>
      <trkpt lat="48.357123" lon="15.883604">
        <ele>183.01</ele>
        <time>2017-01-01T02:39:20.288Z</time>
      </trkpt>
      <trkpt lat="48.356486" lon="15.884502">
        <ele>182.56</ele>
        <time>2017-01-01T02:39:40.87Z</time>
      </trkpt>
      <trkpt lat="48.356145" lon="15.885057">
        <ele>182.62</ele>
        <time>2017-01-01T02:39:52.717Z</time>
      </trkpt>
      <trkpt lat="48.355619" lon="15.885992">
        <ele>183.2</ele>
        <time>2017-01-01T02:40:11.92Z</time>
      </trkpt>
      <trkpt lat="48.355163" lon="15.886704">
        <ele>183.67</ele>
        <time>2017-01-01T02:40:27.417Z</time>
      </trkpt>
      <trkpt lat="48.354726" lon="15.887019">
        <ele>184.02</ele>
        <time>2017-01-01T02:40:38.83Z</time>
      </trkpt>
      <trkpt lat="48.354321" lon="15.887137">
        <ele>184.25</ele>
        <time>2017-01-01T02:40:48.544Z</time>
      </trkpt>
      <trkpt lat="48.353996" lon="15.887783">
        <ele>184.55</ele>
        <time>2017-01-01T02:41:01.247Z</time>
      </trkpt>
      <trkpt lat="48.353813" lon="15.888062">
        <ele>184.6</ele>
        <time>2017-01-01T02:41:07.386Z</time>
      </trkpt>
      <trkpt lat="48.354044" lon="15.888671">
        <ele>184.51</ele>
        <time>2017-01-01T02:41:18.383Z</time>
      </trkpt>
      <trkpt lat="48.354026" lon="15.889019">
        <ele>184.47</ele>
        <time>2017-01-01T02:41:23.853Z</time>
      </trkpt>
      <trkpt lat="48.353638" lon="15.889608">
        <ele>184.32</ele>
        <time>2017-01-01T02:41:36.85Z</time>
      </trkpt>
      <trkpt lat="48.352958" lon="15.890904">
        <ele>184</ele>
        <time>2017-01-01T02:42:02.737Z</time>
      </trkpt>
      <trkpt lat="48.352573" lon="15.891619">
        <ele>183.82</ele>
        <time>2017-01-01T02:42:17.163Z</time>
      </trkpt>
      <trkpt lat="48.352236" lon="15.892834">
        <ele>183.57</ele>
        <time>2017-01-01T02:42:37.818Z</time>
      </trkpt>
      <trkpt lat="48.351668" lon="15.895756">
        <ele>183.04</ele>
        <time>2017-01-01T02:43:25.59Z</time>
      </trkpt>
      <trkpt lat="48.35067" lon="15.900075">
        <ele>182.24</ele>
        <time>2017-01-01T02:44:37.337Z</time>
      </trkpt>
      <trkpt lat="48.35016" lon="15.901856">
        <ele>182.04</ele>
        <time>2017-01-01T02:45:07.761Z</time>
      </trkpt>
      <trkpt lat="48.349669" lon="15.904109">
        <ele>181.97</ele>
        <time>2017-01-01T02:45:44.966Z</time>
      </trkpt>
      <trkpt lat="48.349193" lon="15.905966">
        <ele>181.91</ele>
        <time>2017-01-01T02:46:16.194Z</time>
      </trkpt>
      <trkpt lat="48.348239" lon="15.908756">
        <ele>181.79</ele>
        <time>2017-01-01T02:47:05.412Z</time>
      </trkpt>
      <trkpt lat="48.347485" lon="15.910617">
        <ele>181.58</ele>
        <time>2017-01-01T02:47:39.596Z</time>
      </trkpt>
      <trkpt lat="48.347165" lon="15.91153">
        <ele>181.49</ele>
        <time>2017-01-01T02:47:55.787Z</time>
      </trkpt>
      <trkpt lat="48.346964" lon="15.911841">
        <ele>181.36</ele>
        <time>2017-01-01T02:48:02.581Z</time>
      </trkpt>
      <trkpt lat="48.346942" lon="15.911839">
        <ele>181.35</ele>
        <time>2017-01-01T02:48:03.1Z</time>
      </trkpt>
      <trkpt lat="48.34703" lon="15.912318">
        <ele>181.13</ele>
        <time>2017-01-01T02:48:10.899Z</time>
      </trkpt>
      <trkpt lat="48.347091" lon="15.912706">
        <ele>181.06</ele>
        <time>2017-01-01T02:48:17.156Z</time>
      </trkpt>
      <trkpt lat="48.347052" lon="15.913285">
        <ele>181.12</ele>
        <time>2017-01-01T02:48:26.291Z</time>
      </trkpt>
      <trkpt lat="48.346856" lon="15.914872">
        <ele>181.29</ele>
        <time>2017-01-01T02:48:51.626Z</time>
      </trkpt>
      <trkpt lat="48.346654" lon="15.916889">
        <ele>181.67</ele>
        <time>2017-01-01T02:49:23.642Z</time>
      </trkpt>
      <trkpt lat="48.346368" lon="15.918929">
        <ele>182.1</ele>
        <time>2017-01-01T02:49:56.364Z</time>
      </trkpt>
      <trkpt lat="48.345715" lon="15.922035">
        <ele>182.77</ele>
        <time>2017-01-01T02:50:47.486Z</time>
      </trkpt>
      <trkpt lat="48.345171" lon="15.924036">
        <ele>183.03</ele>
        <time>2017-01-01T02:51:21.408Z</time>
      </trkpt>
      <trkpt lat="48.343971" lon="15.923489">
        <ele>183.07</ele>
        <time>2017-01-01T02:51:50.941Z</time>
      </trkpt>
      <trkpt lat="48.343636" lon="15.924745">
        <ele>183.1</ele>
        <time>2017-01-01T02:52:12.177Z</time>
      </trkpt>
      <trkpt lat="48.343283" lon="15.925971">
        <ele>183.05</ele>
        <time>2017-01-01T02:52:33.141Z</time>
      </trkpt>
      <trkpt lat="48.342693" lon="15.92669">
        <ele>182.96</ele>
        <time>2017-01-01T02:52:51.041Z</time>
      </trkpt>
      <trkpt lat="48.341981" lon="15.927565">
        <ele>182.85</ele>
        <time>2017-01-01T02:53:12.715Z</time>
      </trkpt>
      <trkpt lat="48.341678" lon="15.928876">
        <ele>182.68</ele>
        <time>2017-01-01T02:53:34.497Z</time>
      </trkpt>
      <trkpt lat="48.340866" lon="15.93151">
        <ele>182.2</ele>
        <time>2017-01-01T02:54:20.054Z</time>
      </trkpt>
      <trkpt lat="48.340396" lon="15.933266">
        <ele>181.88</ele>
        <time>2017-01-01T02:54:49.76Z</time>
      </trkpt>
      <trkpt lat="48.339995" lon="15.934663">
        <ele>181.55</ele>
        <time>2017-01-01T02:55:13.638Z</time>
      </trkpt>
      <trkpt lat="48.339753" lon="15.936073">
        <ele>181.12</ele>
        <time>2017-01-01T02:55:36.495Z</time>
      </trkpt>
      <trkpt lat="48.339539" lon="15.937022">
        <ele>180.82</ele>
        <time>2017-01-01T02:55:52.222Z</time>
      </trkpt>
      <trkpt lat="48.338581" lon="15.939877">
        <ele>179.75</ele>
        <time>2017-01-01T02:56:42.4Z</time>
      </trkpt>
      <trkpt lat="48.338408" lon="15.940363">
        <ele>179.59</ele>
        <time>2017-01-01T02:56:51.049Z</time>
      </trkpt>
      <trkpt lat="48.337743" lon="15.940126">
        <ele>179.28</ele>
        <time>2017-01-01T02:57:07.143Z</time>
      </trkpt>
      <trkpt lat="48.337368" lon="15.940001">
        <ele>179.24</ele>
        <time>2017-01-01T02:57:16.188Z</time>
      </trkpt>
      <trkpt lat="48.337095" lon="15.939701">
        <ele>179.34</ele>
        <time>2017-01-01T02:57:24.153Z</time>
      </trkpt>
      <trkpt lat="48.336918" lon="15.939528">
        <ele>179.39</ele>
        <time>2017-01-01T02:57:29.126Z</time>
      </trkpt>
      <trkpt lat="48.336768" lon="15.939355">
        <ele>179.47</ele>
        <time>2017-01-01T02:57:33.579Z</time>
      </trkpt>
      <trkpt lat="48.336178" lon="15.939912">
        <ele>179.74</ele>
        <time>2017-01-01T02:57:49.995Z</time>
      </trkpt>
      <trkpt lat="48.335691" lon="15.940356">
        <ele>179.96</ele>
        <time>2017-01-01T02:58:03.415Z</time>
      </trkpt>
      <trkpt lat="48.334933" lon="15.941108">
        <ele>180.27</ele>
        <time>2017-01-01T02:58:24.816Z</time>
      </trkpt>
      <trkpt lat="48.334355" lon="15.941778">
        <ele>180.45</ele>
        <time>2017-01-01T02:58:42.018Z</time>
      </trkpt>
      <trkpt lat="48.333351" lon="15.943219">
        <ele>180.8</ele>
        <time>2017-01-01T02:59:14.741Z</time>
      </trkpt>
      <trkpt lat="48.332103" lon="15.944908">
        <ele>180.94</ele>
        <time>2017-01-01T02:59:54.325Z</time>
      </trkpt>
      <trkpt lat="48.332032" lon="15.945386">
        <ele>180.79</ele>
        <time>2017-01-01T03:00:02.014Z</time>
      </trkpt>
      <trkpt lat="48.331827" lon="15.945613">
        <ele>180.67</ele>
        <time>2017-01-01T03:00:08.011Z</time>
      </trkpt>
      <trkpt lat="48.331436" lon="15.946059">
        <ele>180.14</ele>
        <time>2017-01-01T03:00:19.579Z</time>
      </trkpt>
      <trkpt lat="48.331007" lon="15.94672">
        <ele>179.34</ele>
        <time>2017-01-01T03:00:34.062Z</time>
      </trkpt>
      <trkpt lat="48.330822" lon="15.946891">
        <ele>179.05</ele>
        <time>2017-01-01T03:00:39.177Z</time>
      </trkpt>
      <trkpt lat="48.330807" lon="15.946884">
        <ele>179.04</ele>
        <time>2017-01-01T03:00:39.547Z</time>
      </trkpt>
      <trkpt lat="48.330781" lon="15.947315">
        <ele>179.15</ele>
        <time>2017-01-01T03:00:46.342Z</time>
      </trkpt>
      <trkpt lat="48.330808" lon="15.948039">
        <ele>179.31</ele>
        <time>2017-01-01T03:00:57.728Z</time>
      </trkpt>
      <trkpt lat="48.330698" lon="15.948632">
        <ele>179.44</ele>
        <time>2017-01-01T03:01:07.393Z</time>
      </trkpt>
      <trkpt lat="48.330506" lon="15.949434">
        <ele>179.56</ele>
        <time>2017-01-01T03:01:20.773Z</time>
      </trkpt>
      <trkpt lat="48.330408" lon="15.949845">
        <ele>179.62</ele>
        <time>2017-01-01T03:01:27.627Z</time>
      </trkpt>
      <trkpt lat="48.330484" lon="15.950233">
        <ele>179.61</ele>
        <time>2017-01-01T03:01:33.977Z</time>
      </trkpt>
      <trkpt lat="48.330447" lon="15.950529">
        <ele>179.56</ele>
        <time>2017-01-01T03:01:38.699Z</time>
      </trkpt>
      <trkpt lat="48.330072" lon="15.950929">
        <ele>179.45</ele>
        <time>2017-01-01T03:01:49.535Z</time>
      </trkpt>
      <trkpt lat="48.329944" lon="15.95108">
        <ele>179.41</ele>
        <time>2017-01-01T03:01:53.368Z</time>
      </trkpt>
      <trkpt lat="48.329733" lon="15.952357">
        <ele>179.23</ele>
        <time>2017-01-01T03:02:14.026Z</time>
      </trkpt>
      <trkpt lat="48.329696" lon="15.952655">
        <ele>179.19</ele>
        <time>2017-01-01T03:02:18.779Z</time>
      </trkpt>
      <trkpt lat="48.330021" lon="15.952868">
        <ele>179.13</ele>
        <time>2017-01-01T03:02:27.129Z</time>
      </trkpt>
      <trkpt lat="48.330111" lon="15.953119">
        <ele>179.11</ele>
        <time>2017-01-01T03:02:31.599Z</time>
      </trkpt>
      <trkpt lat="48.330081" lon="15.95378">
        <ele>179.06</ele>
        <time>2017-01-01T03:02:42.002Z</time>
      </trkpt>
      <trkpt lat="48.330156" lon="15.953912">
        <ele>179.08</ele>
        <time>2017-01-01T03:02:44.723Z</time>
      </trkpt>
      <trkpt lat="48.33082" lon="15.954343">
        <ele>179.31</ele>
        <time>2017-01-01T03:03:01.76Z</time>
      </trkpt>
      <trkpt lat="48.331111" lon="15.954487">
        <ele>179.41</ele>
        <time>2017-01-01T03:03:08.975Z</time>
      </trkpt>
      <trkpt lat="48.331148" lon="15.954785">
        <ele>179.47</ele>
        <time>2017-01-01T03:03:13.728Z</time>
      </trkpt>
      <trkpt lat="48.331076" lon="15.954629">
        <ele>179.5</ele>
        <time>2017-01-01T03:03:16.704Z</time>
      </trkpt>
      <trkpt lat="48.331668" lon="15.955359">
        <ele>179.7</ele>
        <time>2017-01-01T03:03:34.751Z</time>
      </trkpt>
      <trkpt lat="48.331604" lon="15.955205">
        <ele>179.71</ele>
        <time>2017-01-01T03:03:37.597Z</time>
      </trkpt>
      <trkpt lat="48.331639" lon="15.955404">
        <ele>179.7</ele>
        <time>2017-01-01T03:03:40.824Z</time>
      </trkpt>
      <trkpt lat="48.331598" lon="15.955656">
        <ele>179.69</ele>
        <time>2017-01-01T03:03:44.891Z</time>
      </trkpt>
      <trkpt lat="48.331364" lon="15.955674">
        <ele>179.62</ele>
        <time>2017-01-01T03:03:50.408Z</time>
      </trkpt>
      <trkpt lat="48.330964" lon="15.956164">
        <ele>179.32</ele>
        <time>2017-01-01T03:04:02.57Z</time>
      </trkpt>
      <trkpt lat="48.330598" lon="15.956394">
        <ele>179.1</ele>
        <time>2017-01-01T03:04:11.912Z</time>
      </trkpt>
      <trkpt lat="48.330511" lon="15.956898">
        <ele>178.86</ele>
        <time>2017-01-01T03:04:20.087Z</time>
      </trkpt>
      <trkpt lat="48.330767" lon="15.958032">
        <ele>178.25</ele>
        <time>2017-01-01T03:04:38.886Z</time>
      </trkpt>
      <trkpt lat="48.330847" lon="15.958206">
        <ele>178.14</ele>
        <time>2017-01-01T03:04:42.201Z</time>
      </trkpt>
      <trkpt lat="48.330989" lon="15.958374">
        <ele>178.02</ele>
        <time>2017-01-01T03:04:46.458Z</time>
      </trkpt>
      <trkpt lat="48.331533" lon="15.958604">
        <ele>177.74</ele>
        <time>2017-01-01T03:04:59.766Z</time>
      </trkpt>
      <trkpt lat="48.331546" lon="15.958894">
        <ele>177.64</ele>
        <time>2017-01-01T03:05:04.323Z</time>
      </trkpt>
      <trkpt lat="48.331359" lon="15.959233">
        <ele>177.52</ele>
        <time>2017-01-01T03:05:11.225Z</time>
      </trkpt>
      <trkpt lat="48.330792" lon="15.959512">
        <ele>177.3</ele>
        <time>2017-01-01T03:05:25.275Z</time>
      </trkpt>
      <trkpt lat="48.330616" lon="15.959821">
        <ele>177.21</ele>
        <time>2017-01-01T03:05:31.65Z</time>
      </trkpt>
      <trkpt lat="48.330498" lon="15.960235">
        <ele>177.14</ele>
        <time>2017-01-01T03:05:38.719Z</time>
      </trkpt>
      <trkpt lat="48.330509" lon="15.960655">
        <ele>177.12</ele>
        <time>2017-01-01T03:05:45.319Z</time>
      </trkpt>
      <trkpt lat="48.330853" lon="15.961691">
        <ele>177.07</ele>
        <time>2017-01-01T03:06:03.491Z</time>
      </trkpt>
      <trkpt lat="48.331861" lon="15.962386">
        <ele>177.02</ele>
        <time>2017-01-01T03:06:29.615Z</time>
      </trkpt>
      <trkpt lat="48.331977" lon="15.962448">
        <ele>177.02</ele>
        <time>2017-01-01T03:06:32.514Z</time>
      </trkpt>
      <trkpt lat="48.331885" lon="15.962824">
        <ele>177.02</ele>
        <time>2017-01-01T03:06:38.794Z</time>
      </trkpt>
      <trkpt lat="48.331563" lon="15.963902">
        <ele>177.07</ele>
        <time>2017-01-01T03:06:57.341Z</time>
      </trkpt>
      <trkpt lat="48.331226" lon="15.964566">
        <ele>177.11</ele>
        <time>2017-01-01T03:07:10.443Z</time>
      </trkpt>
      <trkpt lat="48.330807" lon="15.966324">
        <ele>177.22</ele>
        <time>2017-01-01T03:07:39.757Z</time>
      </trkpt>
      <trkpt lat="48.330559" lon="15.968361">
        <ele>177.4</ele>
        <time>2017-01-01T03:08:12.27Z</time>
      </trkpt>
      <trkpt lat="48.330572" lon="15.969153">
        <ele>177.48</ele>
        <time>2017-01-01T03:08:24.71Z</time>
      </trkpt>
      <trkpt lat="48.330855" lon="15.970853">
        <ele>177.67</ele>
        <time>2017-01-01T03:08:52.222Z</time>
      </trkpt>
      <trkpt lat="48.331111" lon="15.971966">
        <ele>177.8</ele>
        <time>2017-01-01T03:09:10.708Z</time>
      </trkpt>
      <trkpt lat="48.331445" lon="15.972663">
        <ele>177.86</ele>
        <time>2017-01-01T03:09:24.185Z</time>
      </trkpt>
      <trkpt lat="48.331401" lon="15.973135">
        <ele>177.9</ele>
        <time>2017-01-01T03:09:31.668Z</time>
      </trkpt>
      <trkpt lat="48.331335" lon="15.973897">
        <ele>177.92</ele>
        <time>2017-01-01T03:09:43.733Z</time>
      </trkpt>
      <trkpt lat="48.331112" lon="15.974228">
        <ele>177.91</ele>
        <time>2017-01-01T03:09:51.116Z</time>
      </trkpt>
      <trkpt lat="48.33063" lon="15.975434">
        <ele>177.86</ele>
        <time>2017-01-01T03:10:13.193Z</time>
      </trkpt>
      <trkpt lat="48.330399" lon="15.976999">
        <ele>177.74</ele>
        <time>2017-01-01T03:10:38.361Z</time>
      </trkpt>
      <trkpt lat="48.330297" lon="15.979708">
        <ele>177.41</ele>
        <time>2017-01-01T03:11:20.965Z</time>
      </trkpt>
      <trkpt lat="48.330059" lon="15.980488">
        <ele>177.3</ele>
        <time>2017-01-01T03:11:34.434Z</time>
      </trkpt>
      <trkpt lat="48.329735" lon="15.981339">
        <ele>177.12</ele>
        <time>2017-01-01T03:11:49.821Z</time>
      </trkpt>
      <trkpt lat="48.329276" lon="15.982779">
        <ele>176.73</ele>
        <time>2017-01-01T03:12:14.882Z</time>
      </trkpt>
      <trkpt lat="48.328865" lon="15.9833">
        <ele>176.53</ele>
        <time>2017-01-01T03:12:27.554Z</time>
      </trkpt>
      <trkpt lat="48.32752" lon="15.984829">
        <ele>175.8</ele>
        <time>2017-01-01T03:13:07.297Z</time>
      </trkpt>
      <trkpt lat="48.327496" lon="15.984866">
        <ele>175.78</ele>
        <time>2017-01-01T03:13:08.107Z</time>
      </trkpt>
      <trkpt lat="48.327719" lon="15.985959">
        <ele>175.43</ele>
        <time>2017-01-01T03:13:26.055Z</time>
      </trkpt>
      <trkpt lat="48.328156" lon="15.986379">
        <ele>175.23</ele>
        <time>2017-01-01T03:13:38.277Z</time>
      </trkpt>
      <trkpt lat="48.328286" lon="15.986921">
        <ele>175.13</ele>
        <time>2017-01-01T03:13:47.322Z</time>
      </trkpt>
      <trkpt lat="48.328084" lon="15.988266">
        <ele>174.9</ele>
        <time>2017-01-01T03:14:08.971Z</time>
      </trkpt>
      <trkpt lat="48.328416" lon="15.989113">
        <ele>174.85</ele>
        <time>2017-01-01T03:14:24.398Z</time>
      </trkpt>
      <trkpt lat="48.328594" lon="15.989736">
        <ele>174.88</ele>
        <time>2017-01-01T03:14:35.041Z</time>
      </trkpt>
      <trkpt lat="48.328723" lon="15.990552">
        <ele>174.91</ele>
        <time>2017-01-01T03:14:48.209Z</time>
      </trkpt>
      <trkpt lat="48.328973" lon="15.991202">
        <ele>174.97</ele>
        <time>2017-01-01T03:14:59.992Z</time>
      </trkpt>
      <trkpt lat="48.329447" lon="15.991213">
        <ele>175.03</ele>
        <time>2017-01-01T03:15:11.155Z</time>
      </trkpt>
      <trkpt lat="48.32992" lon="15.99127">
        <ele>175.09</ele>
        <time>2017-01-01T03:15:22.329Z</time>
      </trkpt>
      <trkpt lat="48.330944" lon="15.992128">
        <ele>175.26</ele>
        <time>2017-01-01T03:15:49.95Z</time>
      </trkpt>
      <trkpt lat="48.331161" lon="15.992513">
        <ele>175.3</ele>
        <time>2017-01-01T03:15:57.859Z</time>
      </trkpt>
      <trkpt lat="48.331076" lon="15.994025">
        <ele>175.43</ele>
        <time>2017-01-01T03:16:21.684Z</time>
      </trkpt>
      <trkpt lat="48.330825" lon="15.995834">
        <ele>175.57</ele>
        <time>2017-01-01T03:16:50.697Z</time>
      </trkpt>
      <trkpt lat="48.329763" lon="15.996855">
        <ele>175.68</ele>
        <time>2017-01-01T03:17:20.402Z</time>
      </trkpt>
      <trkpt lat="48.329412" lon="15.997473">
        <ele>175.73</ele>
        <time>2017-01-01T03:17:33.149Z</time>
      </trkpt>
      <trkpt lat="48.329218" lon="15.998442">
        <ele>175.78</ele>
        <time>2017-01-01T03:17:49.035Z</time>
      </trkpt>
      <trkpt lat="48.329227" lon="15.999651">
        <ele>175.81</ele>
        <time>2017-01-01T03:18:08.02Z</time>
      </trkpt>
      <trkpt lat="48.328932" lon="16.000524">
        <ele>175.84</ele>
        <time>2017-01-01T03:18:23.388Z</time>
      </trkpt>
      <trkpt lat="48.328482" lon="16.00122">
        <ele>175.85</ele>
        <time>2017-01-01T03:18:38.61Z</time>
      </trkpt>
      <trkpt lat="48.327978" lon="16.002145">
        <ele>175.83</ele>
        <time>2017-01-01T03:18:57.367Z</time>
      </trkpt>
      <trkpt lat="48.327447" lon="16.003304">
        <ele>175.8</ele>
        <time>2017-01-01T03:19:19.448Z</time>
      </trkpt>
      <trkpt lat="48.327016" lon="16.004749">
        <ele>175.75</ele>
        <time>2017-01-01T03:19:44.305Z</time>
      </trkpt>
      <trkpt lat="48.326646" lon="16.007636">
        <ele>175.58</ele>
        <time>2017-01-01T03:20:30.469Z</time>
      </trkpt>
      <trkpt lat="48.326498" lon="16.009237">
        <ele>175.49</ele>
        <time>2017-01-01T03:20:55.85Z</time>
      </trkpt>
      <trkpt lat="48.326511" lon="16.011151">
        <ele>175.36</ele>
        <time>2017-01-01T03:21:25.907Z</time>
      </trkpt>
      <trkpt lat="48.326265" lon="16.013425">
        <ele>175.22</ele>
        <time>2017-01-01T03:22:02.083Z</time>
      </trkpt>
      <trkpt lat="48.326191" lon="16.013983">
        <ele>175.18</ele>
        <time>2017-01-01T03:22:11.017Z</time>
      </trkpt>
      <trkpt lat="48.325828" lon="16.014703">
        <ele>175.18</ele>
        <time>2017-01-01T03:22:25.191Z</time>
      </trkpt>
      <trkpt lat="48.325731" lon="16.015248">
        <ele>175.23</ele>
        <time>2017-01-01T03:22:34.049Z</time>
      </trkpt>
      <trkpt lat="48.325706" lon="16.015846">
        <ele>175.28</ele>
        <time>2017-01-01T03:22:43.458Z</time>
      </trkpt>
      <trkpt lat="48.325904" lon="16.017311">
        <ele>175.55</ele>
        <time>2017-01-01T03:23:06.931Z</time>
      </trkpt>
      <trkpt lat="48.326243" lon="16.019048">
        <ele>176.03</ele>
        <time>2017-01-01T03:23:35.351Z</time>
      </trkpt>
      <trkpt lat="48.32678" lon="16.021138">
        <ele>176.64</ele>
        <time>2017-01-01T03:24:10.522Z</time>
      </trkpt>
      <trkpt lat="48.327374" lon="16.023702">
        <ele>177.63</ele>
        <time>2017-01-01T03:24:53.144Z</time>
      </trkpt>
      <trkpt lat="48.327482" lon="16.025229">
        <ele>178.23</ele>
        <time>2017-01-01T03:25:17.257Z</time>
      </trkpt>
      <trkpt lat="48.327353" lon="16.026022">
        <ele>178.54</ele>
        <time>2017-01-01T03:25:30.074Z</time>
      </trkpt>
      <trkpt lat="48.327264" lon="16.026634">
        <ele>178.43</ele>
        <time>2017-01-01T03:25:39.91Z</time>
      </trkpt>
      <trkpt lat="48.327269" lon="16.02663">
        <ele>178.42</ele>
        <time>2017-01-01T03:25:40.043Z</time>
      </trkpt>
      <trkpt lat="48.326823" lon="16.027133">
        <ele>177.55</ele>
        <time>2017-01-01T03:25:53.184Z</time>
      </trkpt>
      <trkpt lat="48.326235" lon="16.027183">
        <ele>176.28</ele>
        <time>2017-01-01T03:26:07.052Z</time>
      </trkpt>
      <trkpt lat="48.325853" lon="16.027221">
        <ele>175.5</ele>
        <time>2017-01-01T03:26:16.067Z</time>
      </trkpt>
      <trkpt lat="48.325541" lon="16.027088">
        <ele>174.84</ele>
        <time>2017-01-01T03:26:23.704Z</time>
      </trkpt>
      <trkpt lat="48.325204" lon="16.027081">
        <ele>174.39</ele>
        <time>2017-01-01T03:26:31.64Z</time>
      </trkpt>
      <trkpt lat="48.325318" lon="16.027158">
        <ele>174.37</ele>
        <time>2017-01-01T03:26:34.583Z</time>
      </trkpt>
      <trkpt lat="48.325305" lon="16.027186">
        <ele>174.37</ele>
        <time>2017-01-01T03:26:35.118Z</time>
      </trkpt>
      <trkpt lat="48.326167" lon="16.027831">
        <ele>174.9</ele>
        <time>2017-01-01T03:26:57.803Z</time>
      </trkpt>
      <trkpt lat="48.32618" lon="16.027837">
        <ele>174.91</ele>
        <time>2017-01-01T03:26:58.123Z</time>
      </trkpt>
      <trkpt lat="48.32669" lon="16.028158">
        <ele>175.24</ele>
        <time>2017-01-01T03:27:11.144Z</time>
      </trkpt>
      <trkpt lat="48.326702" lon="16.028181">
        <ele>175.25</ele>
        <time>2017-01-01T03:27:11.602Z</time>
      </trkpt>
      <trkpt lat="48.326344" lon="16.028773">
        <ele>175.47</ele>
        <time>2017-01-01T03:27:24.151Z</time>
      </trkpt>
      <trkpt lat="48.326369" lon="16.028779">
        <ele>175.48</ele>
        <time>2017-01-01T03:27:24.747Z</time>
      </trkpt>
      <trkpt lat="48.326487" lon="16.028913">
        <ele>175.52</ele>
        <time>2017-01-01T03:27:28.231Z</time>
      </trkpt>
      <trkpt lat="48.32694" lon="16.029286">
        <ele>175.57</ele>
        <time>2017-01-01T03:27:40.396Z</time>
      </trkpt>
      <trkpt lat="48.327538" lon="16.029616">
        <ele>175.63</ele>
        <time>2017-01-01T03:27:55.398Z</time>
      </trkpt>
      <trkpt lat="48.328439" lon="16.029955">
        <ele>175.68</ele>
        <time>2017-01-01T03:28:17.27Z</time>
      </trkpt>
      <trkpt lat="48.329584" lon="16.030175">
        <ele>175.71</ele>
        <time>2017-01-01T03:28:44.452Z</time>
      </trkpt>
      <trkpt lat="48.330456" lon="16.030085">
        <ele>175.74</ele>
        <time>2017-01-01T03:29:05.034Z</time>
      </trkpt>
      <trkpt lat="48.331063" lon="16.030121">
        <ele>175.73</ele>
        <time>2017-01-01T03:29:19.339Z</time>
      </trkpt>
      <trkpt lat="48.331855" lon="16.030343">
        <ele>175.68</ele>
        <time>2017-01-01T03:29:38.311Z</time>
      </trkpt>
      <trkpt lat="48.332571" lon="16.030655">
        <ele>175.64</ele>
        <time>2017-01-01T03:29:55.866Z</time>
      </trkpt>
      <trkpt lat="48.333164" lon="16.031177">
        <ele>175.62</ele>
        <time>2017-01-01T03:30:12.057Z</time>
      </trkpt>
      <trkpt lat="48.333304" lon="16.031461">
        <ele>175.64</ele>
        <time>2017-01-01T03:30:17.597Z</time>
      </trkpt>
      <trkpt lat="48.333361" lon="16.032254">
        <ele>175.68</ele>
        <time>2017-01-01T03:30:30.12Z</time>
      </trkpt>
      <trkpt lat="48.333399" lon="16.035782">
        <ele>176.08</ele>
        <time>2017-01-01T03:31:25.52Z</time>
      </trkpt>
      <trkpt lat="48.333518" lon="16.042007">
        <ele>176.86</ele>
        <time>2017-01-01T03:33:03.298Z</time>
      </trkpt>
      <trkpt lat="48.33357" lon="16.043968">
        <ele>177.1</ele>
        <time>2017-01-01T03:33:34.112Z</time>
      </trkpt>
      <trkpt lat="48.333546" lon="16.044917">
        <ele>177.18</ele>
        <time>2017-01-01T03:33:49.023Z</time>
      </trkpt>
      <trkpt lat="48.33318" lon="16.04563">
        <ele>177.21</ele>
        <time>2017-01-01T03:34:03.151Z</time>
      </trkpt>
      <trkpt lat="48.333147" lon="16.046034">
        <ele>177.21</ele>
        <time>2017-01-01T03:34:09.542Z</time>
      </trkpt>
      <trkpt lat="48.333269" lon="16.046773">
        <ele>177.21</ele>
        <time>2017-01-01T03:34:21.495Z</time>
      </trkpt>
      <trkpt lat="48.333377" lon="16.047429">
        <ele>177.23</ele>
        <time>2017-01-01T03:34:32.104Z</time>
      </trkpt>
      <trkpt lat="48.333299" lon="16.047832">
        <ele>177.24</ele>
        <time>2017-01-01T03:34:38.693Z</time>
      </trkpt>
      <trkpt lat="48.333259" lon="16.049151">
        <ele>177.43</ele>
        <time>2017-01-01T03:34:59.424Z</time>
      </trkpt>
      <trkpt lat="48.333454" lon="16.050132">
        <ele>177.69</ele>
        <time>2017-01-01T03:35:15.496Z</time>
      </trkpt>
      <trkpt lat="48.33361" lon="16.051137">
        <ele>177.94</ele>
        <time>2017-01-01T03:35:31.697Z</time>
      </trkpt>
      <trkpt lat="48.333732" lon="16.052176">
        <ele>178.25</ele>
        <time>2017-01-01T03:35:48.261Z</time>
      </trkpt>
      <trkpt lat="48.333854" lon="16.053711">
        <ele>178.7</ele>
        <time>2017-01-01T03:36:12.532Z</time>
      </trkpt>
      <trkpt lat="48.334056" lon="16.05561">
        <ele>179.26</ele>
        <time>2017-01-01T03:36:42.725Z</time>
      </trkpt>
      <trkpt lat="48.334118" lon="16.056444">
        <ele>179.5</ele>
        <time>2017-01-01T03:36:55.901Z</time>
      </trkpt>
      <trkpt lat="48.334126" lon="16.057781">
        <ele>179.82</ele>
        <time>2017-01-01T03:37:16.894Z</time>
      </trkpt>
      <trkpt lat="48.334107" lon="16.05816">
        <ele>179.91</ele>
        <time>2017-01-01T03:37:22.853Z</time>
      </trkpt>
      <trkpt lat="48.334046" lon="16.058299">
        <ele>179.88</ele>
        <time>2017-01-01T03:37:25.463Z</time>
      </trkpt>
      <trkpt lat="48.334034" lon="16.058298">
        <ele>179.87</ele>
        <time>2017-01-01T03:37:25.746Z</time>
      </trkpt>
      <trkpt lat="48.33393" lon="16.05855">
        <ele>179.68</ele>
        <time>2017-01-01T03:37:30.394Z</time>
      </trkpt>
      <trkpt lat="48.333908" lon="16.059375">
        <ele>178.96</ele>
        <time>2017-01-01T03:37:43.357Z</time>
      </trkpt>
      <trkpt lat="48.333909" lon="16.059374">
        <ele>178.96</ele>
        <time>2017-01-01T03:37:43.385Z</time>
      </trkpt>
      <trkpt lat="48.333967" lon="16.061504">
        <ele>177.07</ele>
        <time>2017-01-01T03:38:16.855Z</time>
      </trkpt>
      <trkpt lat="48.333974" lon="16.061521">
        <ele>177.07</ele>
        <time>2017-01-01T03:38:17.168Z</time>
      </trkpt>
      <trkpt lat="48.33401" lon="16.063051">
        <ele>178.19</ele>
        <time>2017-01-01T03:38:41.205Z</time>
      </trkpt>
      <trkpt lat="48.334007" lon="16.064449">
        <ele>179.22</ele>
        <time>2017-01-01T03:39:03.155Z</time>
      </trkpt>
      <trkpt lat="48.334031" lon="16.06631">
        <ele>180.27</ele>
        <time>2017-01-01T03:39:32.379Z</time>
      </trkpt>
      <trkpt lat="48.333944" lon="16.066463">
        <ele>180.3</ele>
        <time>2017-01-01T03:39:35.533Z</time>
      </trkpt>
      <trkpt lat="48.333387" lon="16.066665">
        <ele>180.4</ele>
        <time>2017-01-01T03:39:49.026Z</time>
      </trkpt>
      <trkpt lat="48.333361" lon="16.067183">
        <ele>180.08</ele>
        <time>2017-01-01T03:39:57.182Z</time>
      </trkpt>
      <trkpt lat="48.333386" lon="16.068098">
        <ele>179.15</ele>
        <time>2017-01-01T03:40:11.56Z</time>
      </trkpt>
      <trkpt lat="48.333387" lon="16.069813">
        <ele>177.39</ele>
        <time>2017-01-01T03:40:38.487Z</time>
      </trkpt>
      <trkpt lat="48.333459" lon="16.071653">
        <ele>175.87</ele>
        <time>2017-01-01T03:41:07.426Z</time>
      </trkpt>
      <trkpt lat="48.333536" lon="16.071662">
        <ele>175.83</ele>
        <time>2017-01-01T03:41:09.245Z</time>
      </trkpt>
      <trkpt lat="48.334202" lon="16.071721">
        <ele>175.46</ele>
        <time>2017-01-01T03:41:24.955Z</time>
      </trkpt>
      <trkpt lat="48.334224" lon="16.072547">
        <ele>175.48</ele>
        <time>2017-01-01T03:41:37.934Z</time>
      </trkpt>
      <trkpt lat="48.334088" lon="16.075884">
        <ele>175.95</ele>
        <time>2017-01-01T03:42:30.425Z</time>
      </trkpt>
      <trkpt lat="48.333905" lon="16.080667">
        <ele>176.63</ele>
        <time>2017-01-01T03:43:45.645Z</time>
      </trkpt>
      <trkpt lat="48.333647" lon="16.083344">
        <ele>176.93</ele>
        <time>2017-01-01T03:44:28.113Z</time>
      </trkpt>
      <trkpt lat="48.333346" lon="16.084092">
        <ele>176.99</ele>
        <time>2017-01-01T03:44:41.83Z</time>
      </trkpt>
      <trkpt lat="48.333215" lon="16.085043">
        <ele>177.05</ele>
        <time>2017-01-01T03:44:57.077Z</time>
      </trkpt>
      <trkpt lat="48.333178" lon="16.085913">
        <ele>177.09</ele>
        <time>2017-01-01T03:45:10.765Z</time>
      </trkpt>
      <trkpt lat="48.333302" lon="16.086431">
        <ele>177.12</ele>
        <time>2017-01-01T03:45:19.406Z</time>
      </trkpt>
      <trkpt lat="48.333298" lon="16.086991">
        <ele>177.15</ele>
        <time>2017-01-01T03:45:28.199Z</time>
      </trkpt>
      <trkpt lat="48.333243" lon="16.087431">
        <ele>177.17</ele>
        <time>2017-01-01T03:45:35.228Z</time>
      </trkpt>
      <trkpt lat="48.332937" lon="16.090382">
        <ele>177.33</ele>
        <time>2017-01-01T03:46:22.119Z</time>
      </trkpt>
      <trkpt lat="48.332649" lon="16.094971">
        <ele>177.57</ele>
        <time>2017-01-01T03:47:34.49Z</time>
      </trkpt>
      <trkpt lat="48.332471" lon="16.098275">
        <ele>177.39</ele>
        <time>2017-01-01T03:48:26.536Z</time>
      </trkpt>
      <trkpt lat="48.332355" lon="16.102374">
        <ele>176.62</ele>
        <time>2017-01-01T03:49:30.953Z</time>
      </trkpt>
      <trkpt lat="48.332424" lon="16.105471">
        <ele>176.05</ele>
        <time>2017-01-01T03:50:19.607Z</time>
      </trkpt>
      <trkpt lat="48.332598" lon="16.108199">
        <ele>175.3</ele>
        <time>2017-01-01T03:51:02.635Z</time>
      </trkpt>
      <trkpt lat="48.332753" lon="16.110024">
        <ele>174.75</ele>
        <time>2017-01-01T03:51:31.521Z</time>
      </trkpt>
      <trkpt lat="48.332978" lon="16.112667">
        <ele>173.96</ele>
        <time>2017-01-01T03:52:13.356Z</time>
      </trkpt>
      <trkpt lat="48.33307" lon="16.113935">
        <ele>173.76</ele>
        <time>2017-01-01T03:52:33.382Z</time>
      </trkpt>
      <trkpt lat="48.333423" lon="16.115318">
        <ele>173.81</ele>
        <time>2017-01-01T03:52:56.633Z</time>
      </trkpt>
      <trkpt lat="48.33356" lon="16.115833">
        <ele>173.83</ele>
        <time>2017-01-01T03:53:05.339Z</time>
      </trkpt>
      <trkpt lat="48.333676" lon="16.116831">
        <ele>173.92</ele>
        <time>2017-01-01T03:53:21.245Z</time>
      </trkpt>
      <trkpt lat="48.333706" lon="16.117332">
        <ele>173.94</ele>
        <time>2017-01-01T03:53:29.143Z</time>
      </trkpt>
      <trkpt lat="48.333723" lon="16.117333">
        <ele>173.94</ele>
        <time>2017-01-01T03:53:29.544Z</time>
      </trkpt>
      <trkpt lat="48.333731" lon="16.117563">
        <ele>173.92</ele>
        <time>2017-01-01T03:53:33.155Z</time>
      </trkpt>
      <trkpt lat="48.333806" lon="16.118303">
        <ele>173.75</ele>
        <time>2017-01-01T03:53:44.907Z</time>
      </trkpt>
      <trkpt lat="48.333905" lon="16.120001">
        <ele>173.38</ele>
        <time>2017-01-01T03:54:11.669Z</time>
      </trkpt>
      <trkpt lat="48.334131" lon="16.122804">
        <ele>172.88</ele>
        <time>2017-01-01T03:54:55.999Z</time>
      </trkpt>
      <trkpt lat="48.334523" lon="16.127906">
        <ele>172.26</ele>
        <time>2017-01-01T03:56:16.634Z</time>
      </trkpt>
      <trkpt lat="48.334692" lon="16.130397">
        <ele>171.95</ele>
        <time>2017-01-01T03:56:55.946Z</time>
      </trkpt>
      <trkpt lat="48.334958" lon="16.1338">
        <ele>171.69</ele>
        <time>2017-01-01T03:57:49.741Z</time>
      </trkpt>
      <trkpt lat="48.335419" lon="16.138695">
        <ele>171.49</ele>
        <time>2017-01-01T03:59:07.357Z</time>
      </trkpt>
      <trkpt lat="48.335739" lon="16.142094">
        <ele>171.36</ele>
        <time>2017-01-01T04:00:01.251Z</time>
      </trkpt>
      <trkpt lat="48.335854" lon="16.143167">
        <ele>171.47</ele>
        <time>2017-01-01T04:00:18.314Z</time>
      </trkpt>
      <trkpt lat="48.336217" lon="16.146405">
        <ele>172.22</ele>
        <time>2017-01-01T04:01:09.864Z</time>
      </trkpt>
      <trkpt lat="48.336485" lon="16.149076">
        <ele>172.85</ele>
        <time>2017-01-01T04:01:52.271Z</time>
      </trkpt>
      <trkpt lat="48.336622" lon="16.150325">
        <ele>173.17</ele>
        <time>2017-01-01T04:02:12.144Z</time>
      </trkpt>
      <trkpt lat="48.336768" lon="16.15191">
        <ele>173.6</ele>
        <time>2017-01-01T04:02:37.265Z</time>
      </trkpt>
      <trkpt lat="48.336623" lon="16.153206">
        <ele>173.95</ele>
        <time>2017-01-01T04:02:57.897Z</time>
      </trkpt>
      <trkpt lat="48.33659" lon="16.15375">
        <ele>174.09</ele>
        <time>2017-01-01T04:03:06.473Z</time>
      </trkpt>
      <trkpt lat="48.336643" lon="16.154532">
        <ele>174.28</ele>
        <time>2017-01-01T04:03:18.814Z</time>
      </trkpt>
      <trkpt lat="48.336842" lon="16.156373">
        <ele>174.74</ele>
        <time>2017-01-01T04:03:48.095Z</time>
      </trkpt>
      <trkpt lat="48.336737" lon="16.156599">
        <ele>174.72</ele>
        <time>2017-01-01T04:03:52.415Z</time>
      </trkpt>
      <trkpt lat="48.336445" lon="16.157093">
        <ele>174.35</ele>
        <time>2017-01-01T04:04:02.78Z</time>
      </trkpt>
      <trkpt lat="48.336383" lon="16.157318">
        <ele>174.21</ele>
        <time>2017-01-01T04:04:06.597Z</time>
      </trkpt>
      <trkpt lat="48.336424" lon="16.157916">
        <ele>173.72</ele>
        <time>2017-01-01T04:04:16.035Z</time>
      </trkpt>
      <trkpt lat="48.336451" lon="16.158445">
        <ele>173.26</ele>
        <time>2017-01-01T04:04:24.365Z</time>
      </trkpt>
      <trkpt lat="48.336377" lon="16.158915">
        <ele>172.84</ele>
        <time>2017-01-01T04:04:31.947Z</time>
      </trkpt>
      <trkpt lat="48.33632" lon="16.159467">
        <ele>172.52</ele>
        <time>2017-01-01T04:04:40.717Z</time>
      </trkpt>
      <trkpt lat="48.336391" lon="16.159901">
        <ele>172.41</ele>
        <time>2017-01-01T04:04:47.733Z</time>
      </trkpt>
      <trkpt lat="48.336858" lon="16.160968">
        <ele>172.11</ele>
        <time>2017-01-01T04:05:07.772Z</time>
      </trkpt>
      <trkpt lat="48.337253" lon="16.161716">
        <ele>172</ele>
        <time>2017-01-01T04:05:22.753Z</time>
      </trkpt>
      <trkpt lat="48.337459" lon="16.162202">
        <ele>172</ele>
        <time>2017-01-01T04:05:31.794Z</time>
      </trkpt>
      <trkpt lat="48.337707" lon="16.163161">
        <ele>172</ele>
        <time>2017-01-01T04:05:47.943Z</time>
      </trkpt>
      <trkpt lat="48.337874" lon="16.163977">
        <ele>172.09</ele>
        <time>2017-01-01T04:06:01.344Z</time>
      </trkpt>
      <trkpt lat="48.33798" lon="16.164556">
        <ele>172.2</ele>
        <time>2017-01-01T04:06:10.77Z</time>
      </trkpt>
      <trkpt lat="48.337967" lon="16.166043">
        <ele>172.48</ele>
        <time>2017-01-01T04:06:34.117Z</time>
      </trkpt>
      <trkpt lat="48.338282" lon="16.168243">
        <ele>172.88</ele>
        <time>2017-01-01T04:07:09.443Z</time>
      </trkpt>
      <trkpt lat="48.338625" lon="16.169494">
        <ele>173.09</ele>
        <time>2017-01-01T04:07:30.679Z</time>
      </trkpt>
      <trkpt lat="48.338716" lon="16.170316">
        <ele>173.22</ele>
        <time>2017-01-01T04:07:43.761Z</time>
      </trkpt>
      <trkpt lat="48.339036" lon="16.171707">
        <ele>173.41</ele>
        <time>2017-01-01T04:08:06.862Z</time>
      </trkpt>
      <trkpt lat="48.339502" lon="16.173741">
        <ele>173.68</ele>
        <time>2017-01-01T04:08:40.627Z</time>
      </trkpt>
      <trkpt lat="48.339593" lon="16.174098">
        <ele>173.73</ele>
        <time>2017-01-01T04:08:46.619Z</time>
      </trkpt>
      <trkpt lat="48.339593" lon="16.174339">
        <ele>173.79</ele>
        <time>2017-01-01T04:08:50.397Z</time>
      </trkpt>
      <trkpt lat="48.339338" lon="16.174745">
        <ele>174.01</ele>
        <time>2017-01-01T04:08:59.154Z</time>
      </trkpt>
      <trkpt lat="48.339333" lon="16.175026">
        <ele>174.12</ele>
        <time>2017-01-01T04:09:03.56Z</time>
      </trkpt>
      <trkpt lat="48.339471" lon="16.175517">
        <ele>174.31</ele>
        <time>2017-01-01T04:09:11.925Z</time>
      </trkpt>
      <trkpt lat="48.340796" lon="16.180128">
        <ele>175.76</ele>
        <time>2017-01-01T04:10:30.75Z</time>
      </trkpt>
      <trkpt lat="48.341552" lon="16.183481">
        <ele>176.79</ele>
        <time>2017-01-01T04:11:26.316Z</time>
      </trkpt>
      <trkpt lat="48.341262" lon="16.183978">
        <ele>176.84</ele>
        <time>2017-01-01T04:11:36.684Z</time>
      </trkpt>
      <trkpt lat="48.341262" lon="16.184198">
        <ele>176.82</ele>
        <time>2017-01-01T04:11:40.133Z</time>
      </trkpt>
      <trkpt lat="48.342719" lon="16.189333">
        <ele>176.2</ele>
        <time>2017-01-01T04:13:07.741Z</time>
      </trkpt>
      <trkpt lat="48.34373" lon="16.192998">
        <ele>175.93</ele>
        <time>2017-01-01T04:14:10.005Z</time>
      </trkpt>
      <trkpt lat="48.345361" lon="16.200449">
        <ele>175.8</ele>
        <time>2017-01-01T04:16:13.111Z</time>
      </trkpt>
      <trkpt lat="48.347128" lon="16.208867">
        <ele>175.66</ele>
        <time>2017-01-01T04:18:31.644Z</time>
      </trkpt>
      <trkpt lat="48.347355" lon="16.210076">
        <ele>175.68</ele>
        <time>2017-01-01T04:18:51.36Z</time>
      </trkpt>
      <trkpt lat="48.347126" lon="16.211861">
        <ele>175.75</ele>
        <time>2017-01-01T04:19:19.893Z</time>
      </trkpt>
      <trkpt lat="48.347108" lon="16.211867">
        <ele>175.75</ele>
        <time>2017-01-01T04:19:20.327Z</time>
      </trkpt>
      <trkpt lat="48.347117" lon="16.212184">
        <ele>175.74</ele>
        <time>2017-01-01T04:19:25.3Z</time>
      </trkpt>
      <trkpt lat="48.347459" lon="16.214071">
        <ele>175.55</ele>
        <time>2017-01-01T04:19:55.995Z</time>
      </trkpt>
      <trkpt lat="48.347712" lon="16.215014">
        <ele>175.44</ele>
        <time>2017-01-01T04:20:11.951Z</time>
      </trkpt>
      <trkpt lat="48.348331" lon="16.215563">
        <ele>175.39</ele>
        <time>2017-01-01T04:20:28.884Z</time>
      </trkpt>
      <trkpt lat="48.348453" lon="16.216041">
        <ele>175.41</ele>
        <time>2017-01-01T04:20:36.918Z</time>
      </trkpt>
      <trkpt lat="48.348918" lon="16.218725">
        <ele>175.5</ele>
        <time>2017-01-01T04:21:20.446Z</time>
      </trkpt>
      <trkpt lat="48.349533" lon="16.22244">
        <ele>175.87</ele>
        <time>2017-01-01T04:22:20.528Z</time>
      </trkpt>
      <trkpt lat="48.350099" lon="16.226854">
        <ele>176.45</ele>
        <time>2017-01-01T04:23:31.08Z</time>
      </trkpt>
      <trkpt lat="48.350639" lon="16.231474">
        <ele>177.05</ele>
        <time>2017-01-01T04:24:44.7Z</time>
      </trkpt>
      <trkpt lat="48.350897" lon="16.234267">
        <ele>177.38</ele>
        <time>2017-01-01T04:25:28.957Z</time>
      </trkpt>
      <trkpt lat="48.351284" lon="16.237651">
        <ele>177.68</ele>
        <time>2017-01-01T04:26:22.847Z</time>
      </trkpt>
      <trkpt lat="48.351391" lon="16.239289">
        <ele>177.83</ele>
        <time>2017-01-01T04:26:48.679Z</time>
      </trkpt>
      <trkpt lat="48.351315" lon="16.240346">
        <ele>177.85</ele>
        <time>2017-01-01T04:27:05.365Z</time>
      </trkpt>
      <trkpt lat="48.351269" lon="16.240914">
        <ele>177.71</ele>
        <time>2017-01-01T04:27:14.346Z</time>
      </trkpt>
      <trkpt lat="48.351227" lon="16.24095">
        <ele>177.69</ele>
        <time>2017-01-01T04:27:15.485Z</time>
      </trkpt>
      <trkpt lat="48.350966" lon="16.240113">
        <ele>177.08</ele>
        <time>2017-01-01T04:27:29.989Z</time>
      </trkpt>
      <trkpt lat="48.350492" lon="16.2395">
        <ele>176.18</ele>
        <time>2017-01-01T04:27:44.725Z</time>
      </trkpt>
      <trkpt lat="48.349802" lon="16.239415">
        <ele>175.18</ele>
        <time>2017-01-01T04:28:01.027Z</time>
      </trkpt>
      <trkpt lat="48.349364" lon="16.239884">
        <ele>174.38</ele>
        <time>2017-01-01T04:28:13.698Z</time>
      </trkpt>
      <trkpt lat="48.349268" lon="16.24027">
        <ele>174.04</ele>
        <time>2017-01-01T04:28:20.165Z</time>
      </trkpt>
      <trkpt lat="48.349007" lon="16.240702">
        <ele>173.56</ele>
        <time>2017-01-01T04:28:29.317Z</time>
      </trkpt>
      <trkpt lat="48.350224" lon="16.244003">
        <ele>171.08</ele>
        <time>2017-01-01T04:29:28.526Z</time>
      </trkpt>
      <trkpt lat="48.349999" lon="16.244878">
        <ele>170.52</ele>
        <time>2017-01-01T04:29:43.246Z</time>
      </trkpt>
      <trkpt lat="48.34969" lon="16.246854">
        <ele>169.31</ele>
        <time>2017-01-01T04:30:15.103Z</time>
      </trkpt>
      <trkpt lat="48.349614" lon="16.247681">
        <ele>168.97</ele>
        <time>2017-01-01T04:30:28.206Z</time>
      </trkpt>
      <trkpt lat="48.349515" lon="16.248018">
        <ele>169.07</ele>
        <time>2017-01-01T04:30:33.979Z</time>
      </trkpt>
      <trkpt lat="48.34952" lon="16.248013">
        <ele>169.07</ele>
        <time>2017-01-01T04:30:34.12Z</time>
      </trkpt>
      <trkpt lat="48.349736" lon="16.2485">
        <ele>169.63</ele>
        <time>2017-01-01T04:30:43.301Z</time>
      </trkpt>
      <trkpt lat="48.35006" lon="16.249965">
        <ele>171.33</ele>
        <time>2017-01-01T04:31:07.528Z</time>
      </trkpt>
      <trkpt lat="48.350478" lon="16.251466">
        <ele>173.12</ele>
        <time>2017-01-01T04:31:33.061Z</time>
      </trkpt>
      <trkpt lat="48.350761" lon="16.252327">
        <ele>173.82</ele>
        <time>2017-01-01T04:31:48.129Z</time>
      </trkpt>
      <trkpt lat="48.350936" lon="16.253341">
        <ele>174.12</ele>
        <time>2017-01-01T04:32:04.569Z</time>
      </trkpt>
      <trkpt lat="48.350877" lon="16.25379">
        <ele>174.25</ele>
        <time>2017-01-01T04:32:11.752Z</time>
      </trkpt>
      <trkpt lat="48.35116" lon="16.254606">
        <ele>174.34</ele>
        <time>2017-01-01T04:32:26.189Z</time>
      </trkpt>
      <trkpt lat="48.351301" lon="16.256716">
        <ele>174.39</ele>
        <time>2017-01-01T04:32:59.472Z</time>
      </trkpt>
      <trkpt lat="48.351124" lon="16.258619">
        <ele>174.44</ele>
        <time>2017-01-01T04:33:29.63Z</time>
      </trkpt>
      <trkpt lat="48.35167" lon="16.258759">
        <ele>174.41</ele>
        <time>2017-01-01T04:33:42.673Z</time>
      </trkpt>
      <trkpt lat="48.35159" lon="16.260012">
        <ele>174.27</ele>
        <time>2017-01-01T04:34:02.429Z</time>
      </trkpt>
      <trkpt lat="48.3515" lon="16.261172">
        <ele>174.14</ele>
        <time>2017-01-01T04:34:20.759Z</time>
      </trkpt>
      <trkpt lat="48.351491" lon="16.261091">
        <ele>174.12</ele>
        <time>2017-01-01T04:34:22.046Z</time>
      </trkpt>
      <trkpt lat="48.351646" lon="16.262097">
        <ele>173.71</ele>
        <time>2017-01-01T04:34:38.252Z</time>
      </trkpt>
      <trkpt lat="48.35163" lon="16.264702">
        <ele>172.65</ele>
        <time>2017-01-01T04:35:19.14Z</time>
      </trkpt>
      <trkpt lat="48.351532" lon="16.26694">
        <ele>171.71</ele>
        <time>2017-01-01T04:35:54.342Z</time>
      </trkpt>
      <trkpt lat="48.351463" lon="16.270217">
        <ele>170.3</ele>
        <time>2017-01-01T04:36:45.801Z</time>
      </trkpt>
      <trkpt lat="48.351436" lon="16.271533">
        <ele>169.74</ele>
        <time>2017-01-01T04:37:06.466Z</time>
      </trkpt>
      <trkpt lat="48.351563" lon="16.271861">
        <ele>169.6</ele>
        <time>2017-01-01T04:37:12.413Z</time>
      </trkpt>
      <trkpt lat="48.351558" lon="16.272086">
        <ele>169.55</ele>
        <time>2017-01-01T04:37:15.941Z</time>
      </trkpt>
      <trkpt lat="48.351573" lon="16.272076">
        <ele>169.54</ele>
        <time>2017-01-01T04:37:16.327Z</time>
      </trkpt>
      <trkpt lat="48.351442" lon="16.274572">
        <ele>169.14</ele>
        <time>2017-01-01T04:37:55.624Z</time>
      </trkpt>
      <trkpt lat="48.351356" lon="16.277429">
        <ele>168.75</ele>
        <time>2017-01-01T04:38:40.511Z</time>
      </trkpt>
      <trkpt lat="48.351289" lon="16.278411">
        <ele>168.61</ele>
        <time>2017-01-01T04:38:56.004Z</time>
      </trkpt>
      <trkpt lat="48.350867" lon="16.281411">
        <ele>168.28</ele>
        <time>2017-01-01T04:39:44.128Z</time>
      </trkpt>
      <trkpt lat="48.350231" lon="16.284213">
        <ele>168.02</ele>
        <time>2017-01-01T04:40:30.587Z</time>
      </trkpt>
      <trkpt lat="48.349523" lon="16.28626">
        <ele>167.82</ele>
        <time>2017-01-01T04:41:06.784Z</time>
      </trkpt>
      <trkpt lat="48.349523" lon="16.28626">
        <ele>167.82</ele>
        <time>2017-01-01T04:41:06.784Z</time>
      </trkpt>
      <trkpt lat="48.348756" lon="16.287932">
        <ele>167.86</ele>
        <time>2017-01-01T04:41:38.642Z</time>
      </trkpt>
      <trkpt lat="48.347544" lon="16.290264">
        <ele>167.92</ele>
        <time>2017-01-01T04:42:25.057Z</time>
      </trkpt>
      <trkpt lat="48.347152" lon="16.290996">
        <ele>167.94</ele>
        <time>2017-01-01T04:42:39.796Z</time>
      </trkpt>
      <trkpt lat="48.346876" lon="16.291113">
        <ele>167.96</ele>
        <time>2017-01-01T04:42:46.549Z</time>
      </trkpt>
      <trkpt lat="48.34644" lon="16.2913">
        <ele>167.99</ele>
        <time>2017-01-01T04:42:57.226Z</time>
      </trkpt>
      <trkpt lat="48.346331" lon="16.29146">
        <ele>168</ele>
        <time>2017-01-01T04:43:00.814Z</time>
      </trkpt>
      <trkpt lat="48.345392" lon="16.292103">
        <ele>168.12</ele>
        <time>2017-01-01T04:43:25.12Z</time>
      </trkpt>
      <trkpt lat="48.343693" lon="16.293619">
        <ele>168.36</ele>
        <time>2017-01-01T04:44:11.67Z</time>
      </trkpt>
      <trkpt lat="48.342416" lon="16.294787">
        <ele>168.53</ele>
        <time>2017-01-01T04:44:46.889Z</time>
      </trkpt>
      <trkpt lat="48.340222" lon="16.296639">
        <ele>168.8</ele>
        <time>2017-01-01T04:45:46.171Z</time>
      </trkpt>
      <trkpt lat="48.338166" lon="16.298096">
        <ele>169.05</ele>
        <time>2017-01-01T04:46:39.716Z</time>
      </trkpt>
      <trkpt lat="48.337603" lon="16.298524">
        <ele>169.11</ele>
        <time>2017-01-01T04:46:54.579Z</time>
      </trkpt>
      <trkpt lat="48.337414" lon="16.298546">
        <ele>169.12</ele>
        <time>2017-01-01T04:46:59.043Z</time>
      </trkpt>
      <trkpt lat="48.336872" lon="16.298975">
        <ele>169.17</ele>
        <time>2017-01-01T04:47:13.474Z</time>
      </trkpt>
      <trkpt lat="48.336874" lon="16.298966">
        <ele>169.17</ele>
        <time>2017-01-01T04:47:13.623Z</time>
      </trkpt>
      <trkpt lat="48.335898" lon="16.299761">
        <ele>169.34</ele>
        <time>2017-01-01T04:47:39.776Z</time>
      </trkpt>
      <trkpt lat="48.335548" lon="16.299968">
        <ele>169.4</ele>
        <time>2017-01-01T04:47:48.634Z</time>
      </trkpt>
      <trkpt lat="48.335163" lon="16.300246">
        <ele>169.48</ele>
        <time>2017-01-01T04:47:58.693Z</time>
      </trkpt>
      <trkpt lat="48.334726" lon="16.300681">
        <ele>169.62</ele>
        <time>2017-01-01T04:48:11.043Z</time>
      </trkpt>
      <trkpt lat="48.334236" lon="16.30108">
        <ele>169.77</ele>
        <time>2017-01-01T04:48:24.172Z</time>
      </trkpt>
      <trkpt lat="48.333007" lon="16.302108">
        <ele>170.21</ele>
        <time>2017-01-01T04:48:57.309Z</time>
      </trkpt>
      <trkpt lat="48.331669" lon="16.303186">
        <ele>170.7</ele>
        <time>2017-01-01T04:49:33.074Z</time>
      </trkpt>
      <trkpt lat="48.331669" lon="16.303186">
        <ele>170.7</ele>
        <time>2017-01-01T04:49:33.074Z</time>
      </trkpt>
      <trkpt lat="48.328561" lon="16.305811">
        <ele>171.56</ele>
        <time>2017-01-01T04:50:57.068Z</time>
      </trkpt>
      <trkpt lat="48.324925" lon="16.308941">
        <ele>171.97</ele>
        <time>2017-01-01T04:52:35.791Z</time>
      </trkpt>
      <trkpt lat="48.322648" lon="16.310918">
        <ele>172.24</ele>
        <time>2017-01-01T04:53:37.749Z</time>
      </trkpt>
      <trkpt lat="48.321066" lon="16.312294">
        <ele>171.77</ele>
        <time>2017-01-01T04:54:20.815Z</time>
      </trkpt>
      <trkpt lat="48.318332" lon="16.314885">
        <ele>169.89</ele>
        <time>2017-01-01T04:55:36.976Z</time>
      </trkpt>
      <trkpt lat="48.317453" lon="16.315765">
        <ele>169.28</ele>
        <time>2017-01-01T04:56:01.864Z</time>
      </trkpt>
      <trkpt lat="48.317145" lon="16.316073">
        <ele>169.08</ele>
        <time>2017-01-01T04:56:10.578Z</time>
      </trkpt>
      <trkpt lat="48.317159" lon="16.31606">
        <ele>169.08</ele>
        <time>2017-01-01T04:56:10.966Z</time>
      </trkpt>
      <trkpt lat="48.31709" lon="16.316117">
        <ele>169.07</ele>
        <time>2017-01-01T04:56:12.82Z</time>
      </trkpt>
      <trkpt lat="48.317266" lon="16.316572">
        <ele>169.17</ele>
        <time>2017-01-01T04:56:21.081Z</time>
      </trkpt>
      <trkpt lat="48.317376" lon="16.316917">
        <ele>169.24</ele>
        <time>2017-01-01T04:56:27.08Z</time>
      </trkpt>
      <trkpt lat="48.316948" lon="16.318069">
        <ele>169.48</ele>
        <time>2017-01-01T04:56:47.791Z</time>
      </trkpt>
      <trkpt lat="48.316448" lon="16.319344">
        <ele>169.66</ele>
        <time>2017-01-01T04:57:11.021Z</time>
      </trkpt>
      <trkpt lat="48.316121" lon="16.319489">
        <ele>169.67</ele>
        <time>2017-01-01T04:57:19.05Z</time>
      </trkpt>
      <trkpt lat="48.315704" lon="16.319505">
        <ele>169.68</ele>
        <time>2017-01-01T04:57:28.873Z</time>
      </trkpt>
      <trkpt lat="48.315302" lon="16.319603">
        <ele>169.58</ele>
        <time>2017-01-01T04:57:38.463Z</time>
      </trkpt>
      <trkpt lat="48.315302" lon="16.319603">
        <ele>169.58</ele>
        <time>2017-01-01T04:57:38.463Z</time>
      </trkpt>
      <trkpt lat="48.314612" lon="16.320919">
        <ele>168.96</ele>
        <time>2017-01-01T04:58:04.754Z</time>
      </trkpt>
      <trkpt lat="48.313855" lon="16.322089">
        <ele>168.17</ele>
        <time>2017-01-01T04:58:30.356Z</time>
      </trkpt>
      <trkpt lat="48.312549" lon="16.324131">
        <ele>166.64</ele>
        <time>2017-01-01T04:59:14.791Z</time>
      </trkpt>
      <trkpt lat="48.311738" lon="16.325296">
        <ele>165.73</ele>
        <time>2017-01-01T04:59:41.24Z</time>
      </trkpt>
      <trkpt lat="48.310884" lon="16.326445">
        <ele>164.88</ele>
        <time>2017-01-01T05:00:08.261Z</time>
      </trkpt>
      <trkpt lat="48.310761" lon="16.326551">
        <ele>164.82</ele>
        <time>2017-01-01T05:00:11.601Z</time>
      </trkpt>
      <trkpt lat="48.310726" lon="16.326686">
        <ele>164.78</ele>
        <time>2017-01-01T05:00:13.873Z</time>
      </trkpt>
      <trkpt lat="48.310751" lon="16.326692">
        <ele>164.78</ele>
        <time>2017-01-01T05:00:14.469Z</time>
      </trkpt>
      <trkpt lat="48.31048" lon="16.326979">
        <ele>164.97</ele>
        <time>2017-01-01T05:00:22.278Z</time>
      </trkpt>
      <trkpt lat="48.310473" lon="16.326966">
        <ele>164.98</ele>
        <time>2017-01-01T05:00:22.54Z</time>
      </trkpt>
      <trkpt lat="48.310395" lon="16.327118">
        <ele>165.08</ele>
        <time>2017-01-01T05:00:25.55Z</time>
      </trkpt>
      <trkpt lat="48.309988" lon="16.328386">
        <ele>165.98</ele>
        <time>2017-01-01T05:00:47.654Z</time>
      </trkpt>
      <trkpt lat="48.310105" lon="16.32884">
        <ele>166.29</ele>
        <time>2017-01-01T05:00:55.299Z</time>
      </trkpt>
      <trkpt lat="48.310743" lon="16.329857">
        <ele>167.15</ele>
        <time>2017-01-01T05:01:17.228Z</time>
      </trkpt>
      <trkpt lat="48.310743" lon="16.330277">
        <ele>167.37</ele>
        <time>2017-01-01T05:01:23.825Z</time>
      </trkpt>
      <trkpt lat="48.310246" lon="16.331204">
        <ele>168</ele>
        <time>2017-01-01T05:01:42.506Z</time>
      </trkpt>
      <trkpt lat="48.309669" lon="16.332108">
        <ele>168.52</ele>
        <time>2017-01-01T05:02:02.159Z</time>
      </trkpt>
      <trkpt lat="48.30851" lon="16.333621">
        <ele>169.17</ele>
        <time>2017-01-01T05:02:38.349Z</time>
      </trkpt>
      <trkpt lat="48.30798" lon="16.333709">
        <ele>169.39</ele>
        <time>2017-01-01T05:02:50.905Z</time>
      </trkpt>
      <trkpt lat="48.306309" lon="16.334135">
        <ele>169.42</ele>
        <time>2017-01-01T05:03:30.818Z</time>
      </trkpt>
      <trkpt lat="48.304548" lon="16.334849">
        <ele>168.48</ele>
        <time>2017-01-01T05:04:13.775Z</time>
      </trkpt>
      <trkpt lat="48.304007" lon="16.334853">
        <ele>168.2</ele>
        <time>2017-01-01T05:04:26.514Z</time>
      </trkpt>
      <trkpt lat="48.303498" lon="16.334254">
        <ele>167.48</ele>
        <time>2017-01-01T05:04:41.752Z</time>
      </trkpt>
      <trkpt lat="48.302838" lon="16.333715">
        <ele>166.31</ele>
        <time>2017-01-01T05:04:59.45Z</time>
      </trkpt>
      <trkpt lat="48.302676" lon="16.333788">
        <ele>166.05</ele>
        <time>2017-01-01T05:05:03.433Z</time>
      </trkpt>
      <trkpt lat="48.302686" lon="16.333798">
        <ele>166.04</ele>
        <time>2017-01-01T05:05:03.716Z</time>
      </trkpt>
      <trkpt lat="48.302584" lon="16.333771">
        <ele>166.03</ele>
        <time>2017-01-01T05:05:06.155Z</time>
      </trkpt>
      <trkpt lat="48.302201" lon="16.3337">
        <ele>166.01</ele>
        <time>2017-01-01T05:05:15.242Z</time>
      </trkpt>
      <trkpt lat="48.301834" lon="16.333814">
        <ele>165.99</ele>
        <time>2017-01-01T05:05:24.067Z</time>
      </trkpt>
      <trkpt lat="48.301162" lon="16.334068">
        <ele>165.94</ele>
        <time>2017-01-01T05:05:40.385Z</time>
      </trkpt>
      <trkpt lat="48.300933" lon="16.334087">
        <ele>165.93</ele>
        <time>2017-01-01T05:05:45.786Z</time>
      </trkpt>
      <trkpt lat="48.30092" lon="16.334122">
        <ele>165.93</ele>
        <time>2017-01-01T05:05:46.415Z</time>
      </trkpt>
      <trkpt lat="48.300867" lon="16.335967">
        <ele>165.76</ele>
        <time>2017-01-01T05:06:15.428Z</time>
      </trkpt>
      <trkpt lat="48.300867" lon="16.335967">
        <ele>165.76</ele>
        <time>2017-01-01T05:06:15.428Z</time>
      </trkpt>
      <trkpt lat="48.300816" lon="16.337156">
        <ele>165.73</ele>
        <time>2017-01-01T05:06:34.147Z</time>
      </trkpt>
      <trkpt lat="48.300199" lon="16.338195">
        <ele>165.82</ele>
        <time>2017-01-01T05:06:56Z</time>
      </trkpt>
      <trkpt lat="48.299563" lon="16.338852">
        <ele>165.9</ele>
        <time>2017-01-01T05:07:14.189Z</time>
      </trkpt>
      <trkpt lat="48.298183" lon="16.340082">
        <ele>166.18</ele>
        <time>2017-01-01T05:07:51.997Z</time>
      </trkpt>
      <trkpt lat="48.297782" lon="16.340276">
        <ele>166.25</ele>
        <time>2017-01-01T05:08:01.918Z</time>
      </trkpt>
      <trkpt lat="48.29758" lon="16.340172">
        <ele>166.29</ele>
        <time>2017-01-01T05:08:06.947Z</time>
      </trkpt>
      <trkpt lat="48.29739" lon="16.340482">
        <ele>166.3</ele>
        <time>2017-01-01T05:08:13.555Z</time>
      </trkpt>
      <trkpt lat="48.295902" lon="16.341812">
        <ele>166.19</ele>
        <time>2017-01-01T05:08:54.352Z</time>
      </trkpt>
      <trkpt lat="48.295798" lon="16.341905">
        <ele>166.18</ele>
        <time>2017-01-01T05:08:57.203Z</time>
      </trkpt>
      <trkpt lat="48.295695" lon="16.341924">
        <ele>166.17</ele>
        <time>2017-01-01T05:08:59.647Z</time>
      </trkpt>
      <trkpt lat="48.294022" lon="16.34315">
        <ele>165.98</ele>
        <time>2017-01-01T05:09:43.5Z</time>
      </trkpt>
      <trkpt lat="48.293921" lon="16.343291">
        <ele>165.96</ele>
        <time>2017-01-01T05:09:46.748Z</time>
      </trkpt>
      <trkpt lat="48.293656" lon="16.34324">
        <ele>165.92</ele>
        <time>2017-01-01T05:09:53.039Z</time>
      </trkpt>
      <trkpt lat="48.292289" lon="16.343455">
        <ele>165.68</ele>
        <time>2017-01-01T05:10:25.405Z</time>
      </trkpt>
      <trkpt lat="48.291417" lon="16.343893">
        <ele>165.51</ele>
        <time>2017-01-01T05:10:47.061Z</time>
      </trkpt>
      <trkpt lat="48.291081" lon="16.343979">
        <ele>165.48</ele>
        <time>2017-01-01T05:10:55.087Z</time>
      </trkpt>
      <trkpt lat="48.28983" lon="16.344491">
        <ele>165.5</ele>
        <time>2017-01-01T05:11:25.624Z</time>
      </trkpt>
      <trkpt lat="48.289693" lon="16.344229">
        <ele>165.5</ele>
        <time>2017-01-01T05:11:30.85Z</time>
      </trkpt>
      <trkpt lat="48.289693" lon="16.344229">
        <ele>165.5</ele>
        <time>2017-01-01T05:11:30.85Z</time>
      </trkpt>
      <trkpt lat="48.288571" lon="16.344877">
        <ele>165.96</ele>
        <time>2017-01-01T05:11:59.165Z</time>
      </trkpt>
      <trkpt lat="48.2867" lon="16.345513">
        <ele>166.7</ele>
        <time>2017-01-01T05:12:44.342Z</time>
      </trkpt>
      <trkpt lat="48.28613" lon="16.345789">
        <ele>167.22</ele>
        <time>2017-01-01T05:12:58.445Z</time>
      </trkpt>
      <trkpt lat="48.285441" lon="16.346285">
        <ele>168.34</ele>
        <time>2017-01-01T05:13:16.445Z</time>
      </trkpt>
      <trkpt lat="48.285446" lon="16.346284">
        <ele>168.34</ele>
        <time>2017-01-01T05:13:16.564Z</time>
      </trkpt>
      <trkpt lat="48.285154" lon="16.346601">
        <ele>168.94</ele>
        <time>2017-01-01T05:13:25.051Z</time>
      </trkpt>
      <trkpt lat="48.284431" lon="16.347185">
        <ele>170.26</ele>
        <time>2017-01-01T05:13:44.392Z</time>
      </trkpt>
      <trkpt lat="48.28422" lon="16.347378">
        <ele>170.65</ele>
        <time>2017-01-01T05:13:50.211Z</time>
      </trkpt>
      <trkpt lat="48.284183" lon="16.34779">
        <ele>171.03</ele>
        <time>2017-01-01T05:13:56.744Z</time>
      </trkpt>
      <trkpt lat="48.284173" lon="16.348224">
        <ele>171.39</ele>
        <time>2017-01-01T05:14:03.569Z</time>
      </trkpt>
      <trkpt lat="48.283998" lon="16.34875">
        <ele>171.88</ele>
        <time>2017-01-01T05:14:12.806Z</time>
      </trkpt>
      <trkpt lat="48.283096" lon="16.349471">
        <ele>173.51</ele>
        <time>2017-01-01T05:14:36.879Z</time>
      </trkpt>
      <trkpt lat="48.282131" lon="16.350181">
        <ele>175.56</ele>
        <time>2017-01-01T05:15:02.194Z</time>
      </trkpt>
      <trkpt lat="48.280634" lon="16.351675">
        <ele>179</ele>
        <time>2017-01-01T05:15:44.549Z</time>
      </trkpt>
      <trkpt lat="48.280661" lon="16.351668">
        <ele>179.06</ele>
        <time>2017-01-01T05:15:45.194Z</time>
      </trkpt>
      <trkpt lat="48.279589" lon="16.352694">
        <ele>181.57</ele>
        <time>2017-01-01T05:16:15.148Z</time>
      </trkpt>
      <trkpt lat="48.278576" lon="16.353254">
        <ele>183.7</ele>
        <time>2017-01-01T05:16:40.574Z</time>
      </trkpt>
      <trkpt lat="48.2782" lon="16.353406">
        <ele>183.68</ele>
        <time>2017-01-01T05:16:49.744Z</time>
      </trkpt>
      <trkpt lat="48.277017" lon="16.354492">
        <ele>180.89</ele>
        <time>2017-01-01T05:17:22.414Z</time>
      </trkpt>
      <trkpt lat="48.275606" lon="16.356228">
        <ele>177.22</ele>
        <time>2017-01-01T05:18:05.408Z</time>
      </trkpt>
      <trkpt lat="48.274646" lon="16.357189">
        <ele>175.15</ele>
        <time>2017-01-01T05:18:32.596Z</time>
      </trkpt>
      <trkpt lat="48.274646" lon="16.357189">
        <ele>175.15</ele>
        <time>2017-01-01T05:18:32.596Z</time>
      </trkpt>
      <trkpt lat="48.27281" lon="16.359063">
        <ele>172.49</ele>
        <time>2017-01-01T05:19:24.911Z</time>
      </trkpt>
      <trkpt lat="48.270581" lon="16.361368">
        <ele>170.63</ele>
        <time>2017-01-01T05:20:28.69Z</time>
      </trkpt>
      <trkpt lat="48.267846" lon="16.363906">
        <ele>169.23</ele>
        <time>2017-01-01T05:21:44.45Z</time>
      </trkpt>
      <trkpt lat="48.265144" lon="16.366451">
        <ele>167.84</ele>
        <time>2017-01-01T05:22:59.61Z</time>
      </trkpt>
      <trkpt lat="48.263332" lon="16.3676">
        <ele>167.14</ele>
        <time>2017-01-01T05:23:45.944Z</time>
      </trkpt>
      <trkpt lat="48.263332" lon="16.3676">
        <ele>167.14</ele>
        <time>2017-01-01T05:23:45.944Z</time>
      </trkpt>
      <trkpt lat="48.261854" lon="16.368133">
        <ele>166.73</ele>
        <time>2017-01-01T05:24:21.742Z</time>
      </trkpt>
      <trkpt lat="48.259142" lon="16.368764">
        <ele>166.16</ele>
        <time>2017-01-01T05:25:26.368Z</time>
      </trkpt>
      <trkpt lat="48.259143" lon="16.368763">
        <ele>166.16</ele>
        <time>2017-01-01T05:25:26.396Z</time>
      </trkpt>
      <trkpt lat="48.258171" lon="16.369019">
        <ele>165.96</ele>
        <time>2017-01-01T05:25:49.634Z</time>
      </trkpt>
      <trkpt lat="48.258183" lon="16.369001">
        <ele>165.94</ele>
        <time>2017-01-01T05:25:50.034Z</time>
      </trkpt>
      <trkpt lat="48.257624" lon="16.369143">
        <ele>164.92</ele>
        <time>2017-01-01T05:26:03.384Z</time>
      </trkpt>
      <trkpt lat="48.257628" lon="16.369169">
        <ele>164.89</ele>
        <time>2017-01-01T05:26:03.803Z</time>
      </trkpt>
      <trkpt lat="48.256463" lon="16.369359">
        <ele>163.06</ele>
        <time>2017-01-01T05:26:31.397Z</time>
      </trkpt>
      <trkpt lat="48.255561" lon="16.369781">
        <ele>162.6</ele>
        <time>2017-01-01T05:26:53.649Z</time>
      </trkpt>
      <trkpt lat="48.255558" lon="16.369763">
        <ele>162.6</ele>
        <time>2017-01-01T05:26:53.94Z</time>
      </trkpt>
      <trkpt lat="48.254429" lon="16.370439">
        <ele>163.63</ele>
        <time>2017-01-01T05:27:22.571Z</time>
      </trkpt>
      <trkpt lat="48.254439" lon="16.370431">
        <ele>163.64</ele>
        <time>2017-01-01T05:27:22.838Z</time>
      </trkpt>
      <trkpt lat="48.254222" lon="16.370563">
        <ele>164.04</ele>
        <time>2017-01-01T05:27:28.352Z</time>
      </trkpt>
      <trkpt lat="48.253793" lon="16.370825">
        <ele>164.95</ele>
        <time>2017-01-01T05:27:39.259Z</time>
      </trkpt>
      <trkpt lat="48.253785" lon="16.370824">
        <ele>164.97</ele>
        <time>2017-01-01T05:27:39.448Z</time>
      </trkpt>
      <trkpt lat="48.253168" lon="16.371205">
        <ele>166.25</ele>
        <time>2017-01-01T05:27:55.16Z</time>
      </trkpt>
      <trkpt lat="48.253163" lon="16.371205">
        <ele>166.26</ele>
        <time>2017-01-01T05:27:55.278Z</time>
      </trkpt>
      <trkpt lat="48.252563" lon="16.371433">
        <ele>167.39</ele>
        <time>2017-01-01T05:28:09.853Z</time>
      </trkpt>
      <trkpt lat="48.251791" lon="16.371654">
        <ele>168.82</ele>
        <time>2017-01-01T05:28:28.36Z</time>
      </trkpt>
      <trkpt lat="48.251789" lon="16.371625">
        <ele>168.8</ele>
        <time>2017-01-01T05:28:28.818Z</time>
      </trkpt>
      <trkpt lat="48.251416" lon="16.371734">
        <ele>167.32</ele>
        <time>2017-01-01T05:28:37.766Z</time>
      </trkpt>
      <trkpt lat="48.250932" lon="16.371766">
        <ele>165.44</ele>
        <time>2017-01-01T05:28:49.174Z</time>
      </trkpt>
      <trkpt lat="48.250922" lon="16.371706">
        <ele>165.3</ele>
        <time>2017-01-01T05:28:50.145Z</time>
      </trkpt>
      <trkpt lat="48.250102" lon="16.37157">
        <ele>163.15</ele>
        <time>2017-01-01T05:29:09.571Z</time>
      </trkpt>
      <trkpt lat="48.250099" lon="16.371566">
        <ele>163.14</ele>
        <time>2017-01-01T05:29:09.666Z</time>
      </trkpt>
      <trkpt lat="48.249479" lon="16.371277">
        <ele>162.42</ele>
        <time>2017-01-01T05:29:24.954Z</time>
      </trkpt>
      <trkpt lat="48.248349" lon="16.370606">
        <ele>162.46</ele>
        <time>2017-01-01T05:29:53.579Z</time>
      </trkpt>
      <trkpt lat="48.247543" lon="16.370001">
        <ele>162.49</ele>
        <time>2017-01-01T05:30:14.81Z</time>
      </trkpt>
      <trkpt lat="48.245855" lon="16.368299">
        <ele>162.72</ele>
        <time>2017-01-01T05:31:02.731Z</time>
      </trkpt>
      <trkpt lat="48.244973" lon="16.367274">
        <ele>162.69</ele>
        <time>2017-01-01T05:31:29.022Z</time>
      </trkpt>
      <trkpt lat="48.244987" lon="16.367297">
        <ele>162.69</ele>
        <time>2017-01-01T05:31:29.511Z</time>
      </trkpt>
      <trkpt lat="48.244634" lon="16.36686">
        <ele>162.6</ele>
        <time>2017-01-01T05:31:40.297Z</time>
      </trkpt>
      <trkpt lat="48.244638" lon="16.366863">
        <ele>162.6</ele>
        <time>2017-01-01T05:31:40.402Z</time>
      </trkpt>
      <trkpt lat="48.243657" lon="16.366081">
        <ele>162.29</ele>
        <time>2017-01-01T05:32:06.572Z</time>
      </trkpt>
      <trkpt lat="48.241356" lon="16.364243">
        <ele>161.72</ele>
        <time>2017-01-01T05:33:07.984Z</time>
      </trkpt>
      <trkpt lat="48.239867" lon="16.363279">
        <ele>161.47</ele>
        <time>2017-01-01T05:33:46.184Z</time>
      </trkpt>
      <trkpt lat="48.238213" lon="16.362413">
        <ele>161.19</ele>
        <time>2017-01-01T05:34:27.445Z</time>
      </trkpt>
      <trkpt lat="48.237235" lon="16.361927">
        <ele>161.1</ele>
        <time>2017-01-01T05:34:51.71Z</time>
      </trkpt>
      <trkpt lat="48.236584" lon="16.361592">
        <ele>161.16</ele>
        <time>2017-01-01T05:35:07.917Z</time>
      </trkpt>
      <trkpt lat="48.236612" lon="16.361556">
        <ele>161.16</ele>
        <time>2017-01-01T05:35:08.786Z</time>
      </trkpt>
      <trkpt lat="48.236152" lon="16.361418">
        <ele>161.33</ele>
        <time>2017-01-01T05:35:19.832Z</time>
      </trkpt>
      <trkpt lat="48.236113" lon="16.361402">
        <ele>161.35</ele>
        <time>2017-01-01T05:35:20.784Z</time>
      </trkpt>
      <trkpt lat="48.235916" lon="16.361295">
        <ele>161.48</ele>
        <time>2017-01-01T05:35:25.718Z</time>
      </trkpt>
      <trkpt lat="48.235918" lon="16.361278">
        <ele>161.49</ele>
        <time>2017-01-01T05:35:25.989Z</time>
      </trkpt>
      <trkpt lat="48.235404" lon="16.361187">
        <ele>162.5</ele>
        <time>2017-01-01T05:35:38.176Z</time>
      </trkpt>
      <trkpt lat="48.235341" lon="16.361053">
        <ele>162.71</ele>
        <time>2017-01-01T05:35:40.751Z</time>
      </trkpt>
      <trkpt lat="48.2348" lon="16.361008">
        <ele>163.88</ele>
        <time>2017-01-01T05:35:53.51Z</time>
      </trkpt>
      <trkpt lat="48.234293" lon="16.360936">
        <ele>165.05</ele>
        <time>2017-01-01T05:36:05.502Z</time>
      </trkpt>
      <trkpt lat="48.232845" lon="16.360978">
        <ele>168.39</ele>
        <time>2017-01-01T05:36:39.605Z</time>
      </trkpt>
      <trkpt lat="48.232633" lon="16.361068">
        <ele>168.81</ele>
        <time>2017-01-01T05:36:44.793Z</time>
      </trkpt>
      <trkpt lat="48.232572" lon="16.36117">
        <ele>168.94</ele>
        <time>2017-01-01T05:36:46.945Z</time>
      </trkpt>
      <trkpt lat="48.231604" lon="16.361664">
        <ele>170.45</ele>
        <time>2017-01-01T05:37:11.027Z</time>
      </trkpt>
      <trkpt lat="48.230385" lon="16.362222">
        <ele>172.08</ele>
        <time>2017-01-01T05:37:41.043Z</time>
      </trkpt>
      <trkpt lat="48.229957" lon="16.362541">
        <ele>172.48</ele>
        <time>2017-01-01T05:37:52.298Z</time>
      </trkpt>
      <trkpt lat="48.229452" lon="16.362703">
        <ele>172.92</ele>
        <time>2017-01-01T05:38:04.459Z</time>
      </trkpt>
      <trkpt lat="48.227774" lon="16.364276">
        <ele>173.78</ele>
        <time>2017-01-01T05:38:51.082Z</time>
      </trkpt>
      <trkpt lat="48.227344" lon="16.364777">
        <ele>173.92</ele>
        <time>2017-01-01T05:39:03.914Z</time>
      </trkpt>
      <trkpt lat="48.227309" lon="16.364814">
        <ele>173.93</ele>
        <time>2017-01-01T05:39:04.923Z</time>
      </trkpt>
      <trkpt lat="48.226981" lon="16.36527">
        <ele>173.98</ele>
        <time>2017-01-01T05:39:15.465Z</time>
      </trkpt>
      <trkpt lat="48.226934" lon="16.365295">
        <ele>173.98</ele>
        <time>2017-01-01T05:39:16.639Z</time>
      </trkpt>
      <trkpt lat="48.226576" lon="16.365776">
        <ele>173.98</ele>
        <time>2017-01-01T05:39:27.968Z</time>
      </trkpt>
      <trkpt lat="48.226247" lon="16.366162">
        <ele>173.9</ele>
        <time>2017-01-01T05:39:37.812Z</time>
      </trkpt>
      <trkpt lat="48.226102" lon="16.366476">
        <ele>173.75</ele>
        <time>2017-01-01T05:39:43.811Z</time>
      </trkpt>
      <trkpt lat="48.225578" lon="16.366973">
        <ele>173.39</ele>
        <time>2017-01-01T05:39:58.419Z</time>
      </trkpt>
      <trkpt lat="48.22509" lon="16.367321">
        <ele>172.5</ele>
        <time>2017-01-01T05:40:11.144Z</time>
      </trkpt>
      <trkpt lat="48.224374" lon="16.367458">
        <ele>170.67</ele>
        <time>2017-01-01T05:40:28.141Z</time>
      </trkpt>
      <trkpt lat="48.223669" lon="16.367526">
        <ele>168.88</ele>
        <time>2017-01-01T05:40:44.776Z</time>
      </trkpt>
      <trkpt lat="48.222834" lon="16.367636">
        <ele>166.94</ele>
        <time>2017-01-01T05:41:04.514Z</time>
      </trkpt>
      <trkpt lat="48.222339" lon="16.367652">
        <ele>166.22</ele>
        <time>2017-01-01T05:41:16.173Z</time>
      </trkpt>
      <trkpt lat="48.221754" lon="16.367754">
        <ele>165.37</ele>
        <time>2017-01-01T05:41:30.041Z</time>
      </trkpt>
      <trkpt lat="48.221185" lon="16.367874">
        <ele>165.35</ele>
        <time>2017-01-01T05:41:43.571Z</time>
      </trkpt>
      <trkpt lat="48.22073" lon="16.368006">
        <ele>165.79</ele>
        <time>2017-01-01T05:41:54.484Z</time>
      </trkpt>
      <trkpt lat="48.22025" lon="16.368146">
        <ele>166.25</ele>
        <time>2017-01-01T05:42:05.999Z</time>
      </trkpt>
      <trkpt lat="48.2198" lon="16.368416">
        <ele>166.59</ele>
        <time>2017-01-01T05:42:17.413Z</time>
      </trkpt>
      <trkpt lat="48.219803" lon="16.368378">
        <ele>166.6</ele>
        <time>2017-01-01T05:42:18.014Z</time>
      </trkpt>
      <trkpt lat="48.219301" lon="16.368904">
        <ele>166.68</ele>
        <time>2017-01-01T05:42:32.444Z</time>
      </trkpt>
      <trkpt lat="48.219243" lon="16.368467">
        <ele>166.63</ele>
        <time>2017-01-01T05:42:39.455Z</time>
      </trkpt>
      <trkpt lat="48.218843" lon="16.368882">
        <ele>166.56</ele>
        <time>2017-01-01T05:42:50.916Z</time>
      </trkpt>
      <trkpt lat="48.218556" lon="16.369333">
        <ele>166.51</ele>
        <time>2017-01-01T05:43:00.716Z</time>
      </trkpt>
      <trkpt lat="48.218776" lon="16.369645">
        <ele>166.7</ele>
        <time>2017-01-01T05:43:07.848Z</time>
      </trkpt>
      <trkpt lat="48.218374" lon="16.370311">
        <ele>167.57</ele>
        <time>2017-01-01T05:43:21.97Z</time>
      </trkpt>
      <trkpt lat="48.218086" lon="16.370165">
        <ele>168.02</ele>
        <time>2017-01-01T05:43:29.129Z</time>
      </trkpt>
      <trkpt lat="48.217724" lon="16.370774">
        <ele>168.99</ele>
        <time>2017-01-01T05:43:41.955Z</time>
      </trkpt>
      <trkpt lat="48.216179" lon="16.372598">
        <ele>172.88</ele>
        <time>2017-01-01T05:44:28.295Z</time>
      </trkpt>
      <trkpt lat="48.213916" lon="16.374361">
        <ele>177.92</ele>
        <time>2017-01-01T05:45:28.372Z</time>
      </trkpt>
      <trkpt lat="48.21415" lon="16.374335">
        <ele>178.47</ele>
        <time>2017-01-01T05:45:33.897Z</time>
      </trkpt>
      <trkpt lat="48.213863" lon="16.373843">
        <ele>179.68</ele>
        <time>2017-01-01T05:45:44.174Z</time>
      </trkpt>
      <trkpt lat="48.213937" lon="16.373968">
        <ele>179.99</ele>
        <time>2017-01-01T05:45:46.8Z</time>
      </trkpt>
      <trkpt lat="48.213829" lon="16.373798">
        <ele>180.39</ele>
        <time>2017-01-01T05:45:50.488Z</time>
      </trkpt>
      <trkpt lat="48.213455" lon="16.373159">
        <ele>181.7</ele>
        <time>2017-01-01T05:46:03.855Z</time>
      </trkpt>
      <trkpt lat="48.213038" lon="16.372753">
        <ele>182.85</ele>
        <time>2017-01-01T05:46:15.57Z</time>
      </trkpt>
      <trkpt lat="48.212038" lon="16.372859">
        <ele>185.02</ele>
        <time>2017-01-01T05:46:39.176Z</time>
      </trkpt>
      <trkpt lat="48.21124" lon="16.371949">
        <ele>186.82</ele>
        <time>2017-01-01T05:47:02.802Z</time>
      </trkpt>
      <trkpt lat="48.211267" lon="16.371995">
        <ele>186.89</ele>
        <time>2017-01-01T05:47:03.765Z</time>
      </trkpt>
      <trkpt lat="48.210562" lon="16.371">
        <ele>187.6</ele>
        <time>2017-01-01T05:47:26.586Z</time>
      </trkpt>
      <trkpt lat="48.21029" lon="16.370493">
        <ele>188.05</ele>
        <time>2017-01-01T05:47:36.818Z</time>
      </trkpt>
      <trkpt lat="48.209207" lon="16.372713">
        <ele>187</ele>
        <time>2017-01-01T05:48:20.075Z</time>
      </trkpt>
    </trkseg>
  </trk>
</gpx>
